<?xml version="1.0" encoding="UTF-8" standalone="no" ?>
<gpx xmlns="http://www.topografix.com/GPX/1/1" xmlns:xsi="http://www.w3.org/2001/XMLSchema-instance" xsi:schemaLocation="http://www.topografix.com/GPX/1/1 http://www.topografix.com/GPX/1/1/gpx.xsd" version="1.1" creator="VisuGPX - https://www.visugpx.com">
  <metadata>
    <name>2023-03-09-46-Castelfranc</name>
    <desc><![CDATA[Départ: place de l'église et de la halle de Castelfranc
7 au départ de ces 10.5 km sportifs par une matinée de Mai ausi chaude qu'un plein été.
direction le Lot par la petite rue des Marguilliers, à la sortie du passage sous l'ancienne voie ferrée on arrive face au Lot. Partir à gauche sur cette ancienne voie ferrée et admirer le Vers, ruisseau qui vient se jeter dans le Lot. A un peu plus d'un km (panneau bois) on traverse la route et on prend le chemin qui monte sur le plateau où l'on traverse Reilhé, Mas Nève et Fages  pour arriver au camp de Sorre et son calvaire qui domine Castelfranc. La descente se fait par l'ancien chemin de croix, chemin qui était bordé de buis que la pyrale a complètement ravagé.
Au bas du chemin se diriger vers l'église (balisage jaune et GR), admirer ses gagouilles et si elle est ouverte, la visiter.

[youtube]hm-kUFHzDmg|800[/youtube]

]]></desc>
  </metadata>
  <trk>
    <name><![CDATA[46-RC181-Castefranc-21-05-22]]></name>
    <trkseg>
      <trkpt lat="44.50077" lon="1.22297">
        <ele>90.98</ele>
        <time>2022-05-21T06:22:54Z</time>
      </trkpt>
      <trkpt lat="44.50077" lon="1.22297">
        <ele>90.98</ele>
        <time>2022-05-21T06:22:55Z</time>
      </trkpt>
      <trkpt lat="44.50076" lon="1.22298">
        <ele>92.9</ele>
        <time>2022-05-21T06:23:13Z</time>
      </trkpt>
      <trkpt lat="44.50077" lon="1.22298">
        <ele>93.87</ele>
        <time>2022-05-21T06:23:28Z</time>
      </trkpt>
      <trkpt lat="44.50079" lon="1.22298">
        <ele>93.87</ele>
        <time>2022-05-21T06:23:47Z</time>
      </trkpt>
      <trkpt lat="44.50077" lon="1.22298">
        <ele>93.87</ele>
        <time>2022-05-21T06:24:06Z</time>
      </trkpt>
      <trkpt lat="44.50076" lon="1.22299">
        <ele>93.87</ele>
        <time>2022-05-21T06:24:22Z</time>
      </trkpt>
      <trkpt lat="44.50073" lon="1.22301">
        <ele>93.87</ele>
        <time>2022-05-21T06:24:40Z</time>
      </trkpt>
      <trkpt lat="44.50074" lon="1.22299">
        <ele>93.87</ele>
        <time>2022-05-21T06:24:51Z</time>
      </trkpt>
      <trkpt lat="44.50073" lon="1.22304">
        <ele>93.87</ele>
        <time>2022-05-21T06:25:05Z</time>
      </trkpt>
      <trkpt lat="44.50068" lon="1.22303">
        <ele>93.87</ele>
        <time>2022-05-21T06:25:20Z</time>
      </trkpt>
      <trkpt lat="44.50067" lon="1.223">
        <ele>93.87</ele>
        <time>2022-05-21T06:25:34Z</time>
      </trkpt>
      <trkpt lat="44.50066" lon="1.223">
        <ele>93.87</ele>
        <time>2022-05-21T06:25:49Z</time>
      </trkpt>
      <trkpt lat="44.50064" lon="1.22307">
        <ele>94.83</ele>
        <time>2022-05-21T06:26:09Z</time>
      </trkpt>
      <trkpt lat="44.50064" lon="1.22303">
        <ele>94.83</ele>
        <time>2022-05-21T06:26:33Z</time>
      </trkpt>
      <trkpt lat="44.50068" lon="1.22298">
        <ele>94.83</ele>
        <time>2022-05-21T06:26:54Z</time>
      </trkpt>
      <trkpt lat="44.50066" lon="1.22303">
        <ele>94.83</ele>
        <time>2022-05-21T06:27:06Z</time>
      </trkpt>
      <trkpt lat="44.5006" lon="1.22297">
        <ele>94.83</ele>
        <time>2022-05-21T06:27:14Z</time>
      </trkpt>
      <trkpt lat="44.50052" lon="1.22281">
        <ele>94.83</ele>
        <time>2022-05-21T06:27:31Z</time>
      </trkpt>
      <trkpt lat="44.50049" lon="1.22277">
        <ele>94.83</ele>
        <time>2022-05-21T06:27:36Z</time>
      </trkpt>
      <trkpt lat="44.50045" lon="1.22266">
        <ele>94.83</ele>
        <time>2022-05-21T06:27:46Z</time>
      </trkpt>
      <trkpt lat="44.50038" lon="1.22251">
        <ele>94.83</ele>
        <time>2022-05-21T06:28:00Z</time>
      </trkpt>
      <trkpt lat="44.5003" lon="1.22234">
        <ele>94.83</ele>
        <time>2022-05-21T06:28:16Z</time>
      </trkpt>
      <trkpt lat="44.50021" lon="1.22221">
        <ele>94.83</ele>
        <time>2022-05-21T06:28:31Z</time>
      </trkpt>
      <trkpt lat="44.5001" lon="1.22201">
        <ele>94.83</ele>
        <time>2022-05-21T06:28:46Z</time>
      </trkpt>
      <trkpt lat="44.50001" lon="1.22189">
        <ele>94.83</ele>
        <time>2022-05-21T06:29:00Z</time>
      </trkpt>
      <trkpt lat="44.49999" lon="1.22189">
        <ele>94.83</ele>
        <time>2022-05-21T06:29:13Z</time>
      </trkpt>
      <trkpt lat="44.49997" lon="1.22185">
        <ele>94.83</ele>
        <time>2022-05-21T06:29:16Z</time>
      </trkpt>
      <trkpt lat="44.49988" lon="1.22178">
        <ele>93.39</ele>
        <time>2022-05-21T06:29:30Z</time>
      </trkpt>
      <trkpt lat="44.49982" lon="1.22187">
        <ele>93.39</ele>
        <time>2022-05-21T06:29:38Z</time>
      </trkpt>
      <trkpt lat="44.49979" lon="1.22194">
        <ele>93.39</ele>
        <time>2022-05-21T06:29:52Z</time>
      </trkpt>
      <trkpt lat="44.49975" lon="1.22204">
        <ele>93.39</ele>
        <time>2022-05-21T06:30:03Z</time>
      </trkpt>
      <trkpt lat="44.49963" lon="1.22229">
        <ele>94.83</ele>
        <time>2022-05-21T06:30:21Z</time>
      </trkpt>
      <trkpt lat="44.4995" lon="1.22253">
        <ele>95.79</ele>
        <time>2022-05-21T06:30:39Z</time>
      </trkpt>
      <trkpt lat="44.49946" lon="1.22259">
        <ele>96.27</ele>
        <time>2022-05-21T06:30:45Z</time>
      </trkpt>
      <trkpt lat="44.49941" lon="1.22275">
        <ele>96.75</ele>
        <time>2022-05-21T06:31:03Z</time>
      </trkpt>
      <trkpt lat="44.49939" lon="1.22278">
        <ele>96.75</ele>
        <time>2022-05-21T06:31:19Z</time>
      </trkpt>
      <trkpt lat="44.49925" lon="1.22296">
        <ele>97.23</ele>
        <time>2022-05-21T06:31:37Z</time>
      </trkpt>
      <trkpt lat="44.49924" lon="1.22298">
        <ele>97.23</ele>
        <time>2022-05-21T06:31:39Z</time>
      </trkpt>
      <trkpt lat="44.49912" lon="1.22322">
        <ele>97.23</ele>
        <time>2022-05-21T06:31:58Z</time>
      </trkpt>
      <trkpt lat="44.49908" lon="1.22328">
        <ele>97.23</ele>
        <time>2022-05-21T06:32:04Z</time>
      </trkpt>
      <trkpt lat="44.49902" lon="1.22339">
        <ele>97.23</ele>
        <time>2022-05-21T06:32:19Z</time>
      </trkpt>
      <trkpt lat="44.49886" lon="1.22362">
        <ele>97.23</ele>
        <time>2022-05-21T06:32:36Z</time>
      </trkpt>
      <trkpt lat="44.49869" lon="1.22379">
        <ele>97.23</ele>
        <time>2022-05-21T06:32:53Z</time>
      </trkpt>
      <trkpt lat="44.49852" lon="1.224">
        <ele>96.75</ele>
        <time>2022-05-21T06:33:12Z</time>
      </trkpt>
      <trkpt lat="44.49838" lon="1.22416">
        <ele>96.75</ele>
        <time>2022-05-21T06:33:27Z</time>
      </trkpt>
      <trkpt lat="44.49822" lon="1.22435">
        <ele>96.75</ele>
        <time>2022-05-21T06:33:44Z</time>
      </trkpt>
      <trkpt lat="44.49806" lon="1.2245">
        <ele>96.75</ele>
        <time>2022-05-21T06:34:01Z</time>
      </trkpt>
      <trkpt lat="44.49797" lon="1.22459">
        <ele>96.75</ele>
        <time>2022-05-21T06:34:13Z</time>
      </trkpt>
      <trkpt lat="44.49779" lon="1.22477">
        <ele>96.75</ele>
        <time>2022-05-21T06:34:31Z</time>
      </trkpt>
      <trkpt lat="44.49761" lon="1.22493">
        <ele>96.75</ele>
        <time>2022-05-21T06:34:49Z</time>
      </trkpt>
      <trkpt lat="44.49745" lon="1.2251">
        <ele>96.75</ele>
        <time>2022-05-21T06:35:06Z</time>
      </trkpt>
      <trkpt lat="44.49728" lon="1.22528">
        <ele>96.75</ele>
        <time>2022-05-21T06:35:23Z</time>
      </trkpt>
      <trkpt lat="44.49709" lon="1.22547">
        <ele>96.75</ele>
        <time>2022-05-21T06:35:42Z</time>
      </trkpt>
      <trkpt lat="44.49701" lon="1.22554">
        <ele>96.75</ele>
        <time>2022-05-21T06:35:50Z</time>
      </trkpt>
      <trkpt lat="44.49685" lon="1.22573">
        <ele>96.27</ele>
        <time>2022-05-21T06:36:07Z</time>
      </trkpt>
      <trkpt lat="44.49667" lon="1.22591">
        <ele>96.27</ele>
        <time>2022-05-21T06:36:25Z</time>
      </trkpt>
      <trkpt lat="44.4965" lon="1.22608">
        <ele>96.27</ele>
        <time>2022-05-21T06:36:42Z</time>
      </trkpt>
      <trkpt lat="44.49633" lon="1.2263">
        <ele>96.27</ele>
        <time>2022-05-21T06:37:01Z</time>
      </trkpt>
      <trkpt lat="44.49616" lon="1.22646">
        <ele>96.27</ele>
        <time>2022-05-21T06:37:18Z</time>
      </trkpt>
      <trkpt lat="44.49597" lon="1.22669">
        <ele>96.27</ele>
        <time>2022-05-21T06:37:38Z</time>
      </trkpt>
      <trkpt lat="44.49581" lon="1.2269">
        <ele>96.27</ele>
        <time>2022-05-21T06:37:56Z</time>
      </trkpt>
      <trkpt lat="44.49565" lon="1.22712">
        <ele>95.79</ele>
        <time>2022-05-21T06:38:13Z</time>
      </trkpt>
      <trkpt lat="44.4955" lon="1.2273">
        <ele>95.79</ele>
        <time>2022-05-21T06:38:31Z</time>
      </trkpt>
      <trkpt lat="44.49533" lon="1.22748">
        <ele>95.79</ele>
        <time>2022-05-21T06:38:48Z</time>
      </trkpt>
      <trkpt lat="44.49514" lon="1.22769">
        <ele>95.79</ele>
        <time>2022-05-21T06:39:08Z</time>
      </trkpt>
      <trkpt lat="44.49502" lon="1.22784">
        <ele>95.31</ele>
        <time>2022-05-21T06:39:21Z</time>
      </trkpt>
      <trkpt lat="44.49489" lon="1.22802">
        <ele>94.35</ele>
        <time>2022-05-21T06:39:36Z</time>
      </trkpt>
      <trkpt lat="44.49487" lon="1.22804">
        <ele>95.79</ele>
        <time>2022-05-21T06:39:38Z</time>
      </trkpt>
      <trkpt lat="44.49472" lon="1.22821">
        <ele>95.79</ele>
        <time>2022-05-21T06:39:54Z</time>
      </trkpt>
      <trkpt lat="44.49457" lon="1.22837">
        <ele>95.31</ele>
        <time>2022-05-21T06:40:10Z</time>
      </trkpt>
      <trkpt lat="44.49445" lon="1.22854">
        <ele>95.31</ele>
        <time>2022-05-21T06:40:23Z</time>
      </trkpt>
      <trkpt lat="44.49432" lon="1.22869">
        <ele>95.31</ele>
        <time>2022-05-21T06:40:37Z</time>
      </trkpt>
      <trkpt lat="44.49415" lon="1.22885">
        <ele>95.31</ele>
        <time>2022-05-21T06:40:53Z</time>
      </trkpt>
      <trkpt lat="44.49405" lon="1.22896">
        <ele>95.31</ele>
        <time>2022-05-21T06:41:04Z</time>
      </trkpt>
      <trkpt lat="44.49388" lon="1.22915">
        <ele>95.31</ele>
        <time>2022-05-21T06:41:22Z</time>
      </trkpt>
      <trkpt lat="44.49368" lon="1.22934">
        <ele>95.31</ele>
        <time>2022-05-21T06:41:42Z</time>
      </trkpt>
      <trkpt lat="44.49351" lon="1.22949">
        <ele>94.83</ele>
        <time>2022-05-21T06:41:59Z</time>
      </trkpt>
      <trkpt lat="44.49342" lon="1.22958">
        <ele>94.83</ele>
        <time>2022-05-21T06:42:09Z</time>
      </trkpt>
      <trkpt lat="44.49329" lon="1.22968">
        <ele>94.83</ele>
        <time>2022-05-21T06:42:21Z</time>
      </trkpt>
      <trkpt lat="44.49326" lon="1.22973">
        <ele>94.83</ele>
        <time>2022-05-21T06:42:25Z</time>
      </trkpt>
      <trkpt lat="44.49313" lon="1.22987">
        <ele>94.83</ele>
        <time>2022-05-21T06:42:40Z</time>
      </trkpt>
      <trkpt lat="44.49294" lon="1.23005">
        <ele>94.83</ele>
        <time>2022-05-21T06:42:57Z</time>
      </trkpt>
      <trkpt lat="44.49276" lon="1.23016">
        <ele>94.83</ele>
        <time>2022-05-21T06:43:13Z</time>
      </trkpt>
      <trkpt lat="44.4926" lon="1.23029">
        <ele>94.83</ele>
        <time>2022-05-21T06:43:28Z</time>
      </trkpt>
      <trkpt lat="44.49243" lon="1.23045">
        <ele>94.83</ele>
        <time>2022-05-21T06:43:46Z</time>
      </trkpt>
      <trkpt lat="44.49224" lon="1.2306">
        <ele>94.83</ele>
        <time>2022-05-21T06:44:04Z</time>
      </trkpt>
      <trkpt lat="44.4922" lon="1.23063">
        <ele>94.83</ele>
        <time>2022-05-21T06:44:08Z</time>
      </trkpt>
      <trkpt lat="44.49202" lon="1.23078">
        <ele>95.31</ele>
        <time>2022-05-21T06:44:26Z</time>
      </trkpt>
      <trkpt lat="44.49183" lon="1.23091">
        <ele>95.31</ele>
        <time>2022-05-21T06:44:44Z</time>
      </trkpt>
      <trkpt lat="44.49169" lon="1.23099">
        <ele>96.27</ele>
        <time>2022-05-21T06:44:59Z</time>
      </trkpt>
      <trkpt lat="44.49165" lon="1.23107">
        <ele>96.27</ele>
        <time>2022-05-21T06:45:12Z</time>
      </trkpt>
      <trkpt lat="44.49166" lon="1.23111">
        <ele>96.27</ele>
        <time>2022-05-21T06:45:17Z</time>
      </trkpt>
      <trkpt lat="44.49168" lon="1.23115">
        <ele>94.83</ele>
        <time>2022-05-21T06:45:21Z</time>
      </trkpt>
      <trkpt lat="44.49169" lon="1.23117">
        <ele>96.27</ele>
        <time>2022-05-21T06:45:23Z</time>
      </trkpt>
      <trkpt lat="44.49183" lon="1.23131">
        <ele>99.15</ele>
        <time>2022-05-21T06:45:40Z</time>
      </trkpt>
      <trkpt lat="44.49196" lon="1.23147">
        <ele>101.56</ele>
        <time>2022-05-21T06:45:58Z</time>
      </trkpt>
      <trkpt lat="44.49202" lon="1.23155">
        <ele>103.96</ele>
        <time>2022-05-21T06:46:12Z</time>
      </trkpt>
      <trkpt lat="44.4921" lon="1.23165">
        <ele>106.36</ele>
        <time>2022-05-21T06:46:27Z</time>
      </trkpt>
      <trkpt lat="44.49225" lon="1.23172">
        <ele>108.29</ele>
        <time>2022-05-21T06:46:46Z</time>
      </trkpt>
      <trkpt lat="44.49236" lon="1.23174">
        <ele>109.73</ele>
        <time>2022-05-21T06:47:02Z</time>
      </trkpt>
      <trkpt lat="44.49247" lon="1.23177">
        <ele>110.69</ele>
        <time>2022-05-21T06:47:17Z</time>
      </trkpt>
      <trkpt lat="44.49258" lon="1.23183">
        <ele>111.17</ele>
        <time>2022-05-21T06:47:30Z</time>
      </trkpt>
      <trkpt lat="44.49271" lon="1.23193">
        <ele>113.09</ele>
        <time>2022-05-21T06:47:47Z</time>
      </trkpt>
      <trkpt lat="44.49284" lon="1.23203">
        <ele>115.01</ele>
        <time>2022-05-21T06:48:05Z</time>
      </trkpt>
      <trkpt lat="44.49296" lon="1.23212">
        <ele>115.5</ele>
        <time>2022-05-21T06:48:20Z</time>
      </trkpt>
      <trkpt lat="44.49306" lon="1.23219">
        <ele>116.94</ele>
        <time>2022-05-21T06:48:34Z</time>
      </trkpt>
      <trkpt lat="44.49312" lon="1.23225">
        <ele>117.42</ele>
        <time>2022-05-21T06:48:47Z</time>
      </trkpt>
      <trkpt lat="44.49331" lon="1.23231">
        <ele>118.86</ele>
        <time>2022-05-21T06:49:04Z</time>
      </trkpt>
      <trkpt lat="44.49352" lon="1.23235">
        <ele>120.78</ele>
        <time>2022-05-21T06:49:21Z</time>
      </trkpt>
      <trkpt lat="44.49361" lon="1.23232">
        <ele>122.22</ele>
        <time>2022-05-21T06:49:38Z</time>
      </trkpt>
      <trkpt lat="44.49375" lon="1.23237">
        <ele>122.71</ele>
        <time>2022-05-21T06:50:00Z</time>
      </trkpt>
      <trkpt lat="44.4939" lon="1.23239">
        <ele>124.63</ele>
        <time>2022-05-21T06:50:16Z</time>
      </trkpt>
      <trkpt lat="44.49404" lon="1.23245">
        <ele>127.03</ele>
        <time>2022-05-21T06:50:33Z</time>
      </trkpt>
      <trkpt lat="44.49415" lon="1.23257">
        <ele>129.92</ele>
        <time>2022-05-21T06:50:52Z</time>
      </trkpt>
      <trkpt lat="44.49424" lon="1.23266">
        <ele>131.36</ele>
        <time>2022-05-21T06:51:07Z</time>
      </trkpt>
      <trkpt lat="44.49427" lon="1.23283">
        <ele>134.24</ele>
        <time>2022-05-21T06:51:27Z</time>
      </trkpt>
      <trkpt lat="44.49436" lon="1.23287">
        <ele>136.16</ele>
        <time>2022-05-21T06:51:45Z</time>
      </trkpt>
      <trkpt lat="44.4944" lon="1.23268">
        <ele>136.64</ele>
        <time>2022-05-21T06:52:00Z</time>
      </trkpt>
      <trkpt lat="44.49443" lon="1.23259">
        <ele>138.09</ele>
        <time>2022-05-21T06:52:15Z</time>
      </trkpt>
      <trkpt lat="44.49441" lon="1.23259">
        <ele>138.09</ele>
        <time>2022-05-21T06:52:38Z</time>
      </trkpt>
      <trkpt lat="44.49447" lon="1.23266">
        <ele>139.05</ele>
        <time>2022-05-21T06:52:55Z</time>
      </trkpt>
      <trkpt lat="44.49448" lon="1.23289">
        <ele>141.45</ele>
        <time>2022-05-21T06:53:13Z</time>
      </trkpt>
      <trkpt lat="44.49448" lon="1.23311">
        <ele>143.85</ele>
        <time>2022-05-21T06:53:30Z</time>
      </trkpt>
      <trkpt lat="44.49447" lon="1.23335">
        <ele>145.3</ele>
        <time>2022-05-21T06:53:47Z</time>
      </trkpt>
      <trkpt lat="44.49448" lon="1.2335">
        <ele>146.26</ele>
        <time>2022-05-21T06:54:03Z</time>
      </trkpt>
      <trkpt lat="44.49446" lon="1.23373">
        <ele>146.74</ele>
        <time>2022-05-21T06:54:21Z</time>
      </trkpt>
      <trkpt lat="44.49445" lon="1.23394">
        <ele>149.14</ele>
        <time>2022-05-21T06:54:39Z</time>
      </trkpt>
      <trkpt lat="44.49447" lon="1.23414">
        <ele>151.54</ele>
        <time>2022-05-21T06:54:58Z</time>
      </trkpt>
      <trkpt lat="44.49447" lon="1.23432">
        <ele>152.99</ele>
        <time>2022-05-21T06:55:15Z</time>
      </trkpt>
      <trkpt lat="44.49447" lon="1.23433">
        <ele>154.91</ele>
        <time>2022-05-21T06:55:17Z</time>
      </trkpt>
      <trkpt lat="44.49446" lon="1.23434">
        <ele>153.95</ele>
        <time>2022-05-21T06:55:19Z</time>
      </trkpt>
      <trkpt lat="44.49448" lon="1.23444">
        <ele>153.95</ele>
        <time>2022-05-21T06:55:39Z</time>
      </trkpt>
      <trkpt lat="44.49445" lon="1.23444">
        <ele>153.47</ele>
        <time>2022-05-21T06:56:07Z</time>
      </trkpt>
      <trkpt lat="44.49446" lon="1.23458">
        <ele>154.91</ele>
        <time>2022-05-21T06:56:22Z</time>
      </trkpt>
      <trkpt lat="44.49447" lon="1.23478">
        <ele>154.91</ele>
        <time>2022-05-21T06:56:39Z</time>
      </trkpt>
      <trkpt lat="44.49448" lon="1.235">
        <ele>155.39</ele>
        <time>2022-05-21T06:56:54Z</time>
      </trkpt>
      <trkpt lat="44.49446" lon="1.23521">
        <ele>157.31</ele>
        <time>2022-05-21T06:57:10Z</time>
      </trkpt>
      <trkpt lat="44.49443" lon="1.23538">
        <ele>159.24</ele>
        <time>2022-05-21T06:57:28Z</time>
      </trkpt>
      <trkpt lat="44.49438" lon="1.23553">
        <ele>162.12</ele>
        <time>2022-05-21T06:57:48Z</time>
      </trkpt>
      <trkpt lat="44.49435" lon="1.23566">
        <ele>165.48</ele>
        <time>2022-05-21T06:58:03Z</time>
      </trkpt>
      <trkpt lat="44.49429" lon="1.23576">
        <ele>165.48</ele>
        <time>2022-05-21T06:58:19Z</time>
      </trkpt>
      <trkpt lat="44.49426" lon="1.23586">
        <ele>166.45</ele>
        <time>2022-05-21T06:58:35Z</time>
      </trkpt>
      <trkpt lat="44.49423" lon="1.23594">
        <ele>167.41</ele>
        <time>2022-05-21T06:58:51Z</time>
      </trkpt>
      <trkpt lat="44.4942" lon="1.2361">
        <ele>168.85</ele>
        <time>2022-05-21T06:59:05Z</time>
      </trkpt>
      <trkpt lat="44.49418" lon="1.2362">
        <ele>169.81</ele>
        <time>2022-05-21T06:59:20Z</time>
      </trkpt>
      <trkpt lat="44.49417" lon="1.23643">
        <ele>171.73</ele>
        <time>2022-05-21T06:59:38Z</time>
      </trkpt>
      <trkpt lat="44.49416" lon="1.23667">
        <ele>174.14</ele>
        <time>2022-05-21T06:59:56Z</time>
      </trkpt>
      <trkpt lat="44.49418" lon="1.23686">
        <ele>176.06</ele>
        <time>2022-05-21T07:00:12Z</time>
      </trkpt>
      <trkpt lat="44.49419" lon="1.23708">
        <ele>177.98</ele>
        <time>2022-05-21T07:00:31Z</time>
      </trkpt>
      <trkpt lat="44.49424" lon="1.2373">
        <ele>179.9</ele>
        <time>2022-05-21T07:00:49Z</time>
      </trkpt>
      <trkpt lat="44.49426" lon="1.23755">
        <ele>181.35</ele>
        <time>2022-05-21T07:01:07Z</time>
      </trkpt>
      <trkpt lat="44.49427" lon="1.2378">
        <ele>181.83</ele>
        <time>2022-05-21T07:01:24Z</time>
      </trkpt>
      <trkpt lat="44.49423" lon="1.23802">
        <ele>182.31</ele>
        <time>2022-05-21T07:01:40Z</time>
      </trkpt>
      <trkpt lat="44.4942" lon="1.23809">
        <ele>182.79</ele>
        <time>2022-05-21T07:01:45Z</time>
      </trkpt>
      <trkpt lat="44.49413" lon="1.23834">
        <ele>184.71</ele>
        <time>2022-05-21T07:02:02Z</time>
      </trkpt>
      <trkpt lat="44.49405" lon="1.23857">
        <ele>186.15</ele>
        <time>2022-05-21T07:02:20Z</time>
      </trkpt>
      <trkpt lat="44.49404" lon="1.23862">
        <ele>188.56</ele>
        <time>2022-05-21T07:02:25Z</time>
      </trkpt>
      <trkpt lat="44.49404" lon="1.23864">
        <ele>187.11</ele>
        <time>2022-05-21T07:02:27Z</time>
      </trkpt>
      <trkpt lat="44.49403" lon="1.23867">
        <ele>187.11</ele>
        <time>2022-05-21T07:02:45Z</time>
      </trkpt>
      <trkpt lat="44.49409" lon="1.23869">
        <ele>187.59</ele>
        <time>2022-05-21T07:03:01Z</time>
      </trkpt>
      <trkpt lat="44.49412" lon="1.23872">
        <ele>187.59</ele>
        <time>2022-05-21T07:03:18Z</time>
      </trkpt>
      <trkpt lat="44.49416" lon="1.23873">
        <ele>187.59</ele>
        <time>2022-05-21T07:03:22Z</time>
      </trkpt>
      <trkpt lat="44.49428" lon="1.2388">
        <ele>188.56</ele>
        <time>2022-05-21T07:03:37Z</time>
      </trkpt>
      <trkpt lat="44.49441" lon="1.23888">
        <ele>189.52</ele>
        <time>2022-05-21T07:03:51Z</time>
      </trkpt>
      <trkpt lat="44.49448" lon="1.239">
        <ele>190</ele>
        <time>2022-05-21T07:04:07Z</time>
      </trkpt>
      <trkpt lat="44.49447" lon="1.23904">
        <ele>190.48</ele>
        <time>2022-05-21T07:04:25Z</time>
      </trkpt>
      <trkpt lat="44.49442" lon="1.23919">
        <ele>190.48</ele>
        <time>2022-05-21T07:04:41Z</time>
      </trkpt>
      <trkpt lat="44.49437" lon="1.23936">
        <ele>190.48</ele>
        <time>2022-05-21T07:04:56Z</time>
      </trkpt>
      <trkpt lat="44.49432" lon="1.23949">
        <ele>189.04</ele>
        <time>2022-05-21T07:05:11Z</time>
      </trkpt>
      <trkpt lat="44.49425" lon="1.23966">
        <ele>188.08</ele>
        <time>2022-05-21T07:05:27Z</time>
      </trkpt>
      <trkpt lat="44.49423" lon="1.23979">
        <ele>184.23</ele>
        <time>2022-05-21T07:05:40Z</time>
      </trkpt>
      <trkpt lat="44.49422" lon="1.23993">
        <ele>183.27</ele>
        <time>2022-05-21T07:05:56Z</time>
      </trkpt>
      <trkpt lat="44.49417" lon="1.24004">
        <ele>181.35</ele>
        <time>2022-05-21T07:06:11Z</time>
      </trkpt>
      <trkpt lat="44.49414" lon="1.24015">
        <ele>178.94</ele>
        <time>2022-05-21T07:06:28Z</time>
      </trkpt>
      <trkpt lat="44.49408" lon="1.24027">
        <ele>176.06</ele>
        <time>2022-05-21T07:06:44Z</time>
      </trkpt>
      <trkpt lat="44.49408" lon="1.24036">
        <ele>173.66</ele>
        <time>2022-05-21T07:06:53Z</time>
      </trkpt>
      <trkpt lat="44.49408" lon="1.24037">
        <ele>175.1</ele>
        <time>2022-05-21T07:06:56Z</time>
      </trkpt>
      <trkpt lat="44.49407" lon="1.24045">
        <ele>173.17</ele>
        <time>2022-05-21T07:07:01Z</time>
      </trkpt>
      <trkpt lat="44.49404" lon="1.2406">
        <ele>169.81</ele>
        <time>2022-05-21T07:07:17Z</time>
      </trkpt>
      <trkpt lat="44.49401" lon="1.24069">
        <ele>167.89</ele>
        <time>2022-05-21T07:07:32Z</time>
      </trkpt>
      <trkpt lat="44.49399" lon="1.2409">
        <ele>165.96</ele>
        <time>2022-05-21T07:07:48Z</time>
      </trkpt>
      <trkpt lat="44.49396" lon="1.24103">
        <ele>165</ele>
        <time>2022-05-21T07:08:01Z</time>
      </trkpt>
      <trkpt lat="44.49395" lon="1.24102">
        <ele>165</ele>
        <time>2022-05-21T07:08:15Z</time>
      </trkpt>
      <trkpt lat="44.49394" lon="1.24104">
        <ele>165</ele>
        <time>2022-05-21T07:08:17Z</time>
      </trkpt>
      <trkpt lat="44.49379" lon="1.24127">
        <ele>165</ele>
        <time>2022-05-21T07:08:35Z</time>
      </trkpt>
      <trkpt lat="44.49367" lon="1.24153">
        <ele>165</ele>
        <time>2022-05-21T07:08:51Z</time>
      </trkpt>
      <trkpt lat="44.49359" lon="1.24165">
        <ele>166.45</ele>
        <time>2022-05-21T07:09:06Z</time>
      </trkpt>
      <trkpt lat="44.4935" lon="1.24186">
        <ele>167.41</ele>
        <time>2022-05-21T07:09:20Z</time>
      </trkpt>
      <trkpt lat="44.49345" lon="1.24205">
        <ele>169.33</ele>
        <time>2022-05-21T07:09:35Z</time>
      </trkpt>
      <trkpt lat="44.49338" lon="1.2422">
        <ele>169.81</ele>
        <time>2022-05-21T07:09:48Z</time>
      </trkpt>
      <trkpt lat="44.4933" lon="1.24234">
        <ele>172.69</ele>
        <time>2022-05-21T07:10:04Z</time>
      </trkpt>
      <trkpt lat="44.49322" lon="1.24241">
        <ele>173.17</ele>
        <time>2022-05-21T07:10:21Z</time>
      </trkpt>
      <trkpt lat="44.49322" lon="1.2424">
        <ele>173.17</ele>
        <time>2022-05-21T07:10:39Z</time>
      </trkpt>
      <trkpt lat="44.49318" lon="1.2425">
        <ele>174.14</ele>
        <time>2022-05-21T07:11:01Z</time>
      </trkpt>
      <trkpt lat="44.4931" lon="1.24272">
        <ele>176.54</ele>
        <time>2022-05-21T07:11:17Z</time>
      </trkpt>
      <trkpt lat="44.49303" lon="1.24282">
        <ele>177.98</ele>
        <time>2022-05-21T07:11:32Z</time>
      </trkpt>
      <trkpt lat="44.49294" lon="1.24303">
        <ele>179.42</ele>
        <time>2022-05-21T07:11:51Z</time>
      </trkpt>
      <trkpt lat="44.49285" lon="1.24326">
        <ele>181.83</ele>
        <time>2022-05-21T07:12:11Z</time>
      </trkpt>
      <trkpt lat="44.49277" lon="1.24345">
        <ele>182.79</ele>
        <time>2022-05-21T07:12:26Z</time>
      </trkpt>
      <trkpt lat="44.49267" lon="1.24365">
        <ele>184.23</ele>
        <time>2022-05-21T07:12:42Z</time>
      </trkpt>
      <trkpt lat="44.4926" lon="1.24385">
        <ele>184.71</ele>
        <time>2022-05-21T07:12:58Z</time>
      </trkpt>
      <trkpt lat="44.49255" lon="1.24401">
        <ele>185.19</ele>
        <time>2022-05-21T07:13:11Z</time>
      </trkpt>
      <trkpt lat="44.49246" lon="1.24424">
        <ele>185.67</ele>
        <time>2022-05-21T07:13:26Z</time>
      </trkpt>
      <trkpt lat="44.49241" lon="1.24445">
        <ele>187.11</ele>
        <time>2022-05-21T07:13:41Z</time>
      </trkpt>
      <trkpt lat="44.49231" lon="1.24466">
        <ele>188.56</ele>
        <time>2022-05-21T07:13:58Z</time>
      </trkpt>
      <trkpt lat="44.49222" lon="1.24478">
        <ele>190.96</ele>
        <time>2022-05-21T07:14:14Z</time>
      </trkpt>
      <trkpt lat="44.49211" lon="1.24494">
        <ele>193.36</ele>
        <time>2022-05-21T07:14:31Z</time>
      </trkpt>
      <trkpt lat="44.49203" lon="1.24508">
        <ele>194.32</ele>
        <time>2022-05-21T07:14:46Z</time>
      </trkpt>
      <trkpt lat="44.49194" lon="1.24522">
        <ele>196.73</ele>
        <time>2022-05-21T07:15:02Z</time>
      </trkpt>
      <trkpt lat="44.49184" lon="1.24531">
        <ele>198.17</ele>
        <time>2022-05-21T07:15:16Z</time>
      </trkpt>
      <trkpt lat="44.49174" lon="1.24541">
        <ele>199.13</ele>
        <time>2022-05-21T07:15:31Z</time>
      </trkpt>
      <trkpt lat="44.49168" lon="1.24545">
        <ele>200.09</ele>
        <time>2022-05-21T07:15:38Z</time>
      </trkpt>
      <trkpt lat="44.49155" lon="1.24557">
        <ele>201.53</ele>
        <time>2022-05-21T07:15:55Z</time>
      </trkpt>
      <trkpt lat="44.49143" lon="1.2457">
        <ele>202.49</ele>
        <time>2022-05-21T07:16:11Z</time>
      </trkpt>
      <trkpt lat="44.49131" lon="1.24585">
        <ele>203.46</ele>
        <time>2022-05-21T07:16:28Z</time>
      </trkpt>
      <trkpt lat="44.49117" lon="1.24604">
        <ele>204.42</ele>
        <time>2022-05-21T07:16:46Z</time>
      </trkpt>
      <trkpt lat="44.49105" lon="1.24621">
        <ele>204.9</ele>
        <time>2022-05-21T07:17:02Z</time>
      </trkpt>
      <trkpt lat="44.49091" lon="1.2464">
        <ele>205.38</ele>
        <time>2022-05-21T07:17:19Z</time>
      </trkpt>
      <trkpt lat="44.49076" lon="1.24658">
        <ele>206.82</ele>
        <time>2022-05-21T07:17:38Z</time>
      </trkpt>
      <trkpt lat="44.49066" lon="1.24677">
        <ele>207.78</ele>
        <time>2022-05-21T07:17:54Z</time>
      </trkpt>
      <trkpt lat="44.49056" lon="1.24694">
        <ele>209.22</ele>
        <time>2022-05-21T07:18:09Z</time>
      </trkpt>
      <trkpt lat="44.49044" lon="1.24714">
        <ele>210.67</ele>
        <time>2022-05-21T07:18:28Z</time>
      </trkpt>
      <trkpt lat="44.49032" lon="1.24731">
        <ele>212.11</ele>
        <time>2022-05-21T07:18:45Z</time>
      </trkpt>
      <trkpt lat="44.4902" lon="1.24746">
        <ele>213.07</ele>
        <time>2022-05-21T07:19:01Z</time>
      </trkpt>
      <trkpt lat="44.4901" lon="1.24759">
        <ele>214.03</ele>
        <time>2022-05-21T07:19:15Z</time>
      </trkpt>
      <trkpt lat="44.48997" lon="1.24776">
        <ele>214.03</ele>
        <time>2022-05-21T07:19:32Z</time>
      </trkpt>
      <trkpt lat="44.48984" lon="1.24797">
        <ele>214.51</ele>
        <time>2022-05-21T07:19:51Z</time>
      </trkpt>
      <trkpt lat="44.48975" lon="1.24821">
        <ele>215.47</ele>
        <time>2022-05-21T07:20:09Z</time>
      </trkpt>
      <trkpt lat="44.48966" lon="1.24842">
        <ele>216.43</ele>
        <time>2022-05-21T07:20:26Z</time>
      </trkpt>
      <trkpt lat="44.48958" lon="1.24862">
        <ele>217.4</ele>
        <time>2022-05-21T07:20:42Z</time>
      </trkpt>
      <trkpt lat="44.48957" lon="1.24869">
        <ele>217.4</ele>
        <time>2022-05-21T07:21:03Z</time>
      </trkpt>
      <trkpt lat="44.48955" lon="1.24868">
        <ele>217.4</ele>
        <time>2022-05-21T07:21:19Z</time>
      </trkpt>
      <trkpt lat="44.48954" lon="1.24869">
        <ele>218.36</ele>
        <time>2022-05-21T07:21:29Z</time>
      </trkpt>
      <trkpt lat="44.48954" lon="1.24869">
        <ele>218.36</ele>
        <time>2022-05-21T07:21:45Z</time>
      </trkpt>
      <trkpt lat="44.48951" lon="1.24874">
        <ele>218.36</ele>
        <time>2022-05-21T07:22:01Z</time>
      </trkpt>
      <trkpt lat="44.4894" lon="1.24902">
        <ele>218.36</ele>
        <time>2022-05-21T07:22:19Z</time>
      </trkpt>
      <trkpt lat="44.48932" lon="1.24913">
        <ele>218.36</ele>
        <time>2022-05-21T07:22:33Z</time>
      </trkpt>
      <trkpt lat="44.48927" lon="1.24921">
        <ele>218.36</ele>
        <time>2022-05-21T07:22:44Z</time>
      </trkpt>
      <trkpt lat="44.48921" lon="1.24933">
        <ele>216.91</ele>
        <time>2022-05-21T07:22:57Z</time>
      </trkpt>
      <trkpt lat="44.48911" lon="1.24948">
        <ele>217.88</ele>
        <time>2022-05-21T07:23:15Z</time>
      </trkpt>
      <trkpt lat="44.48905" lon="1.24956">
        <ele>217.88</ele>
        <time>2022-05-21T07:23:32Z</time>
      </trkpt>
      <trkpt lat="44.48905" lon="1.24955">
        <ele>217.88</ele>
        <time>2022-05-21T07:23:53Z</time>
      </trkpt>
      <trkpt lat="44.48902" lon="1.24957">
        <ele>217.88</ele>
        <time>2022-05-21T07:24:08Z</time>
      </trkpt>
      <trkpt lat="44.48901" lon="1.24962">
        <ele>217.88</ele>
        <time>2022-05-21T07:24:29Z</time>
      </trkpt>
      <trkpt lat="44.4891" lon="1.24964">
        <ele>218.36</ele>
        <time>2022-05-21T07:24:44Z</time>
      </trkpt>
      <trkpt lat="44.48916" lon="1.24966">
        <ele>220.28</ele>
        <time>2022-05-21T07:24:57Z</time>
      </trkpt>
      <trkpt lat="44.48928" lon="1.24963">
        <ele>221.72</ele>
        <time>2022-05-21T07:25:11Z</time>
      </trkpt>
      <trkpt lat="44.48934" lon="1.24964">
        <ele>223.16</ele>
        <time>2022-05-21T07:25:19Z</time>
      </trkpt>
      <trkpt lat="44.48936" lon="1.24975">
        <ele>224.61</ele>
        <time>2022-05-21T07:25:32Z</time>
      </trkpt>
      <trkpt lat="44.48937" lon="1.24993">
        <ele>226.05</ele>
        <time>2022-05-21T07:25:48Z</time>
      </trkpt>
      <trkpt lat="44.48939" lon="1.25003">
        <ele>227.01</ele>
        <time>2022-05-21T07:26:00Z</time>
      </trkpt>
      <trkpt lat="44.48937" lon="1.25009">
        <ele>227.49</ele>
        <time>2022-05-21T07:26:15Z</time>
      </trkpt>
      <trkpt lat="44.48942" lon="1.25017">
        <ele>227.97</ele>
        <time>2022-05-21T07:26:28Z</time>
      </trkpt>
      <trkpt lat="44.48946" lon="1.25033">
        <ele>229.41</ele>
        <time>2022-05-21T07:26:42Z</time>
      </trkpt>
      <trkpt lat="44.48948" lon="1.25045">
        <ele>230.85</ele>
        <time>2022-05-21T07:26:50Z</time>
      </trkpt>
      <trkpt lat="44.48957" lon="1.25067">
        <ele>232.3</ele>
        <time>2022-05-21T07:27:07Z</time>
      </trkpt>
      <trkpt lat="44.48964" lon="1.25086">
        <ele>233.26</ele>
        <time>2022-05-21T07:27:21Z</time>
      </trkpt>
      <trkpt lat="44.48969" lon="1.25098">
        <ele>234.22</ele>
        <time>2022-05-21T07:27:34Z</time>
      </trkpt>
      <trkpt lat="44.48975" lon="1.25112">
        <ele>235.18</ele>
        <time>2022-05-21T07:27:47Z</time>
      </trkpt>
      <trkpt lat="44.48988" lon="1.25134">
        <ele>236.14</ele>
        <time>2022-05-21T07:28:05Z</time>
      </trkpt>
      <trkpt lat="44.49" lon="1.25152">
        <ele>237.1</ele>
        <time>2022-05-21T07:28:22Z</time>
      </trkpt>
      <trkpt lat="44.49005" lon="1.2516">
        <ele>238.06</ele>
        <time>2022-05-21T07:28:35Z</time>
      </trkpt>
      <trkpt lat="44.49021" lon="1.25179">
        <ele>239.02</ele>
        <time>2022-05-21T07:28:53Z</time>
      </trkpt>
      <trkpt lat="44.49034" lon="1.25202">
        <ele>239.51</ele>
        <time>2022-05-21T07:29:12Z</time>
      </trkpt>
      <trkpt lat="44.49038" lon="1.25202">
        <ele>239.99</ele>
        <time>2022-05-21T07:29:26Z</time>
      </trkpt>
      <trkpt lat="44.49041" lon="1.25217">
        <ele>239.99</ele>
        <time>2022-05-21T07:29:40Z</time>
      </trkpt>
      <trkpt lat="44.49044" lon="1.25229">
        <ele>238.54</ele>
        <time>2022-05-21T07:29:50Z</time>
      </trkpt>
      <trkpt lat="44.49053" lon="1.25254">
        <ele>237.58</ele>
        <time>2022-05-21T07:30:07Z</time>
      </trkpt>
      <trkpt lat="44.49063" lon="1.2528">
        <ele>236.62</ele>
        <time>2022-05-21T07:30:25Z</time>
      </trkpt>
      <trkpt lat="44.49068" lon="1.25293">
        <ele>236.62</ele>
        <time>2022-05-21T07:30:34Z</time>
      </trkpt>
      <trkpt lat="44.4908" lon="1.25313">
        <ele>236.14</ele>
        <time>2022-05-21T07:30:50Z</time>
      </trkpt>
      <trkpt lat="44.49095" lon="1.25327">
        <ele>234.7</ele>
        <time>2022-05-21T07:31:06Z</time>
      </trkpt>
      <trkpt lat="44.491" lon="1.2533">
        <ele>234.22</ele>
        <time>2022-05-21T07:31:11Z</time>
      </trkpt>
      <trkpt lat="44.49119" lon="1.25343">
        <ele>234.22</ele>
        <time>2022-05-21T07:31:27Z</time>
      </trkpt>
      <trkpt lat="44.49134" lon="1.25353">
        <ele>234.22</ele>
        <time>2022-05-21T07:31:40Z</time>
      </trkpt>
      <trkpt lat="44.49141" lon="1.25364">
        <ele>235.66</ele>
        <time>2022-05-21T07:31:50Z</time>
      </trkpt>
      <trkpt lat="44.49143" lon="1.25371">
        <ele>236.14</ele>
        <time>2022-05-21T07:31:54Z</time>
      </trkpt>
      <trkpt lat="44.49148" lon="1.25401">
        <ele>236.62</ele>
        <time>2022-05-21T07:32:14Z</time>
      </trkpt>
      <trkpt lat="44.49149" lon="1.25412">
        <ele>236.62</ele>
        <time>2022-05-21T07:32:22Z</time>
      </trkpt>
      <trkpt lat="44.4915" lon="1.25423">
        <ele>237.1</ele>
        <time>2022-05-21T07:32:28Z</time>
      </trkpt>
      <trkpt lat="44.49156" lon="1.25442">
        <ele>237.1</ele>
        <time>2022-05-21T07:32:42Z</time>
      </trkpt>
      <trkpt lat="44.49162" lon="1.25462">
        <ele>237.1</ele>
        <time>2022-05-21T07:32:57Z</time>
      </trkpt>
      <trkpt lat="44.49168" lon="1.25485">
        <ele>237.1</ele>
        <time>2022-05-21T07:33:12Z</time>
      </trkpt>
      <trkpt lat="44.49171" lon="1.2551">
        <ele>237.1</ele>
        <time>2022-05-21T07:33:28Z</time>
      </trkpt>
      <trkpt lat="44.49168" lon="1.25519">
        <ele>237.1</ele>
        <time>2022-05-21T07:33:42Z</time>
      </trkpt>
      <trkpt lat="44.49167" lon="1.25526">
        <ele>237.1</ele>
        <time>2022-05-21T07:34:04Z</time>
      </trkpt>
      <trkpt lat="44.49167" lon="1.25554">
        <ele>237.1</ele>
        <time>2022-05-21T07:34:22Z</time>
      </trkpt>
      <trkpt lat="44.49166" lon="1.25583">
        <ele>238.06</ele>
        <time>2022-05-21T07:34:40Z</time>
      </trkpt>
      <trkpt lat="44.49171" lon="1.25608">
        <ele>239.51</ele>
        <time>2022-05-21T07:34:59Z</time>
      </trkpt>
      <trkpt lat="44.49178" lon="1.25621">
        <ele>240.47</ele>
        <time>2022-05-21T07:35:10Z</time>
      </trkpt>
      <trkpt lat="44.49195" lon="1.25639">
        <ele>240.95</ele>
        <time>2022-05-21T07:35:30Z</time>
      </trkpt>
      <trkpt lat="44.49205" lon="1.25651">
        <ele>241.43</ele>
        <time>2022-05-21T07:35:43Z</time>
      </trkpt>
      <trkpt lat="44.49218" lon="1.25668">
        <ele>241.43</ele>
        <time>2022-05-21T07:35:59Z</time>
      </trkpt>
      <trkpt lat="44.4923" lon="1.2568">
        <ele>241.91</ele>
        <time>2022-05-21T07:36:15Z</time>
      </trkpt>
      <trkpt lat="44.49244" lon="1.25699">
        <ele>241.91</ele>
        <time>2022-05-21T07:36:32Z</time>
      </trkpt>
      <trkpt lat="44.49259" lon="1.25721">
        <ele>243.35</ele>
        <time>2022-05-21T07:36:51Z</time>
      </trkpt>
      <trkpt lat="44.49262" lon="1.25726">
        <ele>243.83</ele>
        <time>2022-05-21T07:36:56Z</time>
      </trkpt>
      <trkpt lat="44.49267" lon="1.25736">
        <ele>245.27</ele>
        <time>2022-05-21T07:37:13Z</time>
      </trkpt>
      <trkpt lat="44.49278" lon="1.25756">
        <ele>247.2</ele>
        <time>2022-05-21T07:37:28Z</time>
      </trkpt>
      <trkpt lat="44.49278" lon="1.25764">
        <ele>248.16</ele>
        <time>2022-05-21T07:37:33Z</time>
      </trkpt>
      <trkpt lat="44.4928" lon="1.25793">
        <ele>249.12</ele>
        <time>2022-05-21T07:37:51Z</time>
      </trkpt>
      <trkpt lat="44.49283" lon="1.25818">
        <ele>249.6</ele>
        <time>2022-05-21T07:38:08Z</time>
      </trkpt>
      <trkpt lat="44.49285" lon="1.25828">
        <ele>250.08</ele>
        <time>2022-05-21T07:38:15Z</time>
      </trkpt>
      <trkpt lat="44.49291" lon="1.25847">
        <ele>250.08</ele>
        <time>2022-05-21T07:38:29Z</time>
      </trkpt>
      <trkpt lat="44.49297" lon="1.25867">
        <ele>250.08</ele>
        <time>2022-05-21T07:38:44Z</time>
      </trkpt>
      <trkpt lat="44.49306" lon="1.2588">
        <ele>251.52</ele>
        <time>2022-05-21T07:39:00Z</time>
      </trkpt>
      <trkpt lat="44.49307" lon="1.25877">
        <ele>251.52</ele>
        <time>2022-05-21T07:39:20Z</time>
      </trkpt>
      <trkpt lat="44.49304" lon="1.25877">
        <ele>251.52</ele>
        <time>2022-05-21T07:39:39Z</time>
      </trkpt>
      <trkpt lat="44.49305" lon="1.2588">
        <ele>251.52</ele>
        <time>2022-05-21T07:39:58Z</time>
      </trkpt>
      <trkpt lat="44.49305" lon="1.25879">
        <ele>251.52</ele>
        <time>2022-05-21T07:40:19Z</time>
      </trkpt>
      <trkpt lat="44.49312" lon="1.25882">
        <ele>252.48</ele>
        <time>2022-05-21T07:40:37Z</time>
      </trkpt>
      <trkpt lat="44.49309" lon="1.25883">
        <ele>252.48</ele>
        <time>2022-05-21T07:40:58Z</time>
      </trkpt>
      <trkpt lat="44.49312" lon="1.25884">
        <ele>252.96</ele>
        <time>2022-05-21T07:41:13Z</time>
      </trkpt>
      <trkpt lat="44.4932" lon="1.25893">
        <ele>253.44</ele>
        <time>2022-05-21T07:41:26Z</time>
      </trkpt>
      <trkpt lat="44.4933" lon="1.25909">
        <ele>253.93</ele>
        <time>2022-05-21T07:41:42Z</time>
      </trkpt>
      <trkpt lat="44.49335" lon="1.25923">
        <ele>253.93</ele>
        <time>2022-05-21T07:41:57Z</time>
      </trkpt>
      <trkpt lat="44.49347" lon="1.25944">
        <ele>255.37</ele>
        <time>2022-05-21T07:42:14Z</time>
      </trkpt>
      <trkpt lat="44.49359" lon="1.25966">
        <ele>256.33</ele>
        <time>2022-05-21T07:42:31Z</time>
      </trkpt>
      <trkpt lat="44.49369" lon="1.25985">
        <ele>256.81</ele>
        <time>2022-05-21T07:42:47Z</time>
      </trkpt>
      <trkpt lat="44.4938" lon="1.26008">
        <ele>257.77</ele>
        <time>2022-05-21T07:43:04Z</time>
      </trkpt>
      <trkpt lat="44.49384" lon="1.26028">
        <ele>258.25</ele>
        <time>2022-05-21T07:43:21Z</time>
      </trkpt>
      <trkpt lat="44.4939" lon="1.26042">
        <ele>259.21</ele>
        <time>2022-05-21T07:43:34Z</time>
      </trkpt>
      <trkpt lat="44.49396" lon="1.26048">
        <ele>249.12</ele>
        <time>2022-05-21T07:43:43Z</time>
      </trkpt>
      <trkpt lat="44.49396" lon="1.26047">
        <ele>252</ele>
        <time>2022-05-21T07:43:44Z</time>
      </trkpt>
      <trkpt lat="44.49397" lon="1.26047">
        <ele>257.29</ele>
        <time>2022-05-21T07:43:45Z</time>
      </trkpt>
      <trkpt lat="44.49397" lon="1.26047">
        <ele>269.79</ele>
        <time>2022-05-21T07:43:46Z</time>
      </trkpt>
      <trkpt lat="44.49398" lon="1.26049">
        <ele>262.1</ele>
        <time>2022-05-21T07:43:47Z</time>
      </trkpt>
      <trkpt lat="44.494" lon="1.26051">
        <ele>258.73</ele>
        <time>2022-05-21T07:43:49Z</time>
      </trkpt>
      <trkpt lat="44.49401" lon="1.26052">
        <ele>258.73</ele>
        <time>2022-05-21T07:43:50Z</time>
      </trkpt>
      <trkpt lat="44.49404" lon="1.26052">
        <ele>258.73</ele>
        <time>2022-05-21T07:43:53Z</time>
      </trkpt>
      <trkpt lat="44.4941" lon="1.26047">
        <ele>258.73</ele>
        <time>2022-05-21T07:44:07Z</time>
      </trkpt>
      <trkpt lat="44.49415" lon="1.26041">
        <ele>259.69</ele>
        <time>2022-05-21T07:44:21Z</time>
      </trkpt>
      <trkpt lat="44.49429" lon="1.26022">
        <ele>260.17</ele>
        <time>2022-05-21T07:44:38Z</time>
      </trkpt>
      <trkpt lat="44.49447" lon="1.26002">
        <ele>260.65</ele>
        <time>2022-05-21T07:44:58Z</time>
      </trkpt>
      <trkpt lat="44.49462" lon="1.25983">
        <ele>261.14</ele>
        <time>2022-05-21T07:45:15Z</time>
      </trkpt>
      <trkpt lat="44.4948" lon="1.25971">
        <ele>261.62</ele>
        <time>2022-05-21T07:45:33Z</time>
      </trkpt>
      <trkpt lat="44.4948" lon="1.2597">
        <ele>261.62</ele>
        <time>2022-05-21T07:45:34Z</time>
      </trkpt>
      <trkpt lat="44.49494" lon="1.25961">
        <ele>263.06</ele>
        <time>2022-05-21T07:45:49Z</time>
      </trkpt>
      <trkpt lat="44.49513" lon="1.25955">
        <ele>263.54</ele>
        <time>2022-05-21T07:46:05Z</time>
      </trkpt>
      <trkpt lat="44.49533" lon="1.25953">
        <ele>264.5</ele>
        <time>2022-05-21T07:46:21Z</time>
      </trkpt>
      <trkpt lat="44.49545" lon="1.2595">
        <ele>264.98</ele>
        <time>2022-05-21T07:46:36Z</time>
      </trkpt>
      <trkpt lat="44.49556" lon="1.2594">
        <ele>264.98</ele>
        <time>2022-05-21T07:46:49Z</time>
      </trkpt>
      <trkpt lat="44.49563" lon="1.25931">
        <ele>263.54</ele>
        <time>2022-05-21T07:46:58Z</time>
      </trkpt>
      <trkpt lat="44.49575" lon="1.25909">
        <ele>261.62</ele>
        <time>2022-05-21T07:47:17Z</time>
      </trkpt>
      <trkpt lat="44.49578" lon="1.259">
        <ele>261.14</ele>
        <time>2022-05-21T07:47:23Z</time>
      </trkpt>
      <trkpt lat="44.49592" lon="1.2588">
        <ele>258.25</ele>
        <time>2022-05-21T07:47:42Z</time>
      </trkpt>
      <trkpt lat="44.49606" lon="1.25857">
        <ele>256.33</ele>
        <time>2022-05-21T07:48:01Z</time>
      </trkpt>
      <trkpt lat="44.49618" lon="1.25835">
        <ele>253.93</ele>
        <time>2022-05-21T07:48:19Z</time>
      </trkpt>
      <trkpt lat="44.49633" lon="1.25813">
        <ele>251.04</ele>
        <time>2022-05-21T07:48:39Z</time>
      </trkpt>
      <trkpt lat="44.49652" lon="1.25795">
        <ele>249.12</ele>
        <time>2022-05-21T07:48:59Z</time>
      </trkpt>
      <trkpt lat="44.49671" lon="1.25779">
        <ele>247.2</ele>
        <time>2022-05-21T07:49:18Z</time>
      </trkpt>
      <trkpt lat="44.49686" lon="1.25766">
        <ele>245.27</ele>
        <time>2022-05-21T07:49:34Z</time>
      </trkpt>
      <trkpt lat="44.49705" lon="1.25758">
        <ele>243.83</ele>
        <time>2022-05-21T07:49:51Z</time>
      </trkpt>
      <trkpt lat="44.4973" lon="1.25763">
        <ele>243.35</ele>
        <time>2022-05-21T07:50:11Z</time>
      </trkpt>
      <trkpt lat="44.49747" lon="1.25776">
        <ele>243.35</ele>
        <time>2022-05-21T07:50:29Z</time>
      </trkpt>
      <trkpt lat="44.49751" lon="1.2579">
        <ele>242.87</ele>
        <time>2022-05-21T07:50:43Z</time>
      </trkpt>
      <trkpt lat="44.49751" lon="1.25793">
        <ele>242.87</ele>
        <time>2022-05-21T07:50:45Z</time>
      </trkpt>
      <trkpt lat="44.49754" lon="1.25818">
        <ele>241.43</ele>
        <time>2022-05-21T07:51:05Z</time>
      </trkpt>
      <trkpt lat="44.49756" lon="1.25838">
        <ele>240.47</ele>
        <time>2022-05-21T07:51:21Z</time>
      </trkpt>
      <trkpt lat="44.49758" lon="1.25869">
        <ele>239.99</ele>
        <time>2022-05-21T07:51:39Z</time>
      </trkpt>
      <trkpt lat="44.49756" lon="1.25886">
        <ele>239.99</ele>
        <time>2022-05-21T07:51:48Z</time>
      </trkpt>
      <trkpt lat="44.49756" lon="1.25889">
        <ele>239.99</ele>
        <time>2022-05-21T07:51:50Z</time>
      </trkpt>
      <trkpt lat="44.49755" lon="1.25897">
        <ele>239.99</ele>
        <time>2022-05-21T07:52:04Z</time>
      </trkpt>
      <trkpt lat="44.49753" lon="1.25903">
        <ele>239.99</ele>
        <time>2022-05-21T07:52:19Z</time>
      </trkpt>
      <trkpt lat="44.49756" lon="1.25901">
        <ele>239.99</ele>
        <time>2022-05-21T07:52:34Z</time>
      </trkpt>
      <trkpt lat="44.49759" lon="1.25901">
        <ele>239.99</ele>
        <time>2022-05-21T07:52:59Z</time>
      </trkpt>
      <trkpt lat="44.49756" lon="1.25915">
        <ele>239.99</ele>
        <time>2022-05-21T07:53:15Z</time>
      </trkpt>
      <trkpt lat="44.49755" lon="1.2592">
        <ele>240.47</ele>
        <time>2022-05-21T07:53:31Z</time>
      </trkpt>
      <trkpt lat="44.49755" lon="1.25924">
        <ele>240.47</ele>
        <time>2022-05-21T07:53:43Z</time>
      </trkpt>
      <trkpt lat="44.4975" lon="1.25951">
        <ele>239.99</ele>
        <time>2022-05-21T07:53:59Z</time>
      </trkpt>
      <trkpt lat="44.49749" lon="1.25974">
        <ele>238.54</ele>
        <time>2022-05-21T07:54:15Z</time>
      </trkpt>
      <trkpt lat="44.49745" lon="1.25993">
        <ele>236.62</ele>
        <time>2022-05-21T07:54:29Z</time>
      </trkpt>
      <trkpt lat="44.49745" lon="1.25996">
        <ele>236.14</ele>
        <time>2022-05-21T07:54:31Z</time>
      </trkpt>
      <trkpt lat="44.49736" lon="1.26014">
        <ele>233.26</ele>
        <time>2022-05-21T07:54:47Z</time>
      </trkpt>
      <trkpt lat="44.49727" lon="1.26033">
        <ele>231.33</ele>
        <time>2022-05-21T07:55:04Z</time>
      </trkpt>
      <trkpt lat="44.49719" lon="1.26052">
        <ele>229.41</ele>
        <time>2022-05-21T07:55:20Z</time>
      </trkpt>
      <trkpt lat="44.49715" lon="1.2606">
        <ele>229.41</ele>
        <time>2022-05-21T07:55:34Z</time>
      </trkpt>
      <trkpt lat="44.49714" lon="1.26074">
        <ele>228.93</ele>
        <time>2022-05-21T07:55:50Z</time>
      </trkpt>
      <trkpt lat="44.49713" lon="1.26095">
        <ele>228.45</ele>
        <time>2022-05-21T07:56:06Z</time>
      </trkpt>
      <trkpt lat="44.49715" lon="1.26114">
        <ele>228.45</ele>
        <time>2022-05-21T07:56:22Z</time>
      </trkpt>
      <trkpt lat="44.49719" lon="1.26136">
        <ele>228.45</ele>
        <time>2022-05-21T07:56:39Z</time>
      </trkpt>
      <trkpt lat="44.49727" lon="1.26157">
        <ele>229.89</ele>
        <time>2022-05-21T07:56:56Z</time>
      </trkpt>
      <trkpt lat="44.4973" lon="1.26178">
        <ele>230.85</ele>
        <time>2022-05-21T07:57:12Z</time>
      </trkpt>
      <trkpt lat="44.49734" lon="1.26195">
        <ele>231.81</ele>
        <time>2022-05-21T07:57:27Z</time>
      </trkpt>
      <trkpt lat="44.49745" lon="1.26218">
        <ele>233.26</ele>
        <time>2022-05-21T07:57:43Z</time>
      </trkpt>
      <trkpt lat="44.49747" lon="1.26222">
        <ele>232.78</ele>
        <time>2022-05-21T07:57:46Z</time>
      </trkpt>
      <trkpt lat="44.49753" lon="1.26247">
        <ele>234.7</ele>
        <time>2022-05-21T07:58:04Z</time>
      </trkpt>
      <trkpt lat="44.49756" lon="1.26269">
        <ele>236.14</ele>
        <time>2022-05-21T07:58:21Z</time>
      </trkpt>
      <trkpt lat="44.49758" lon="1.26276">
        <ele>238.06</ele>
        <time>2022-05-21T07:58:34Z</time>
      </trkpt>
      <trkpt lat="44.49759" lon="1.26278">
        <ele>236.62</ele>
        <time>2022-05-21T07:58:36Z</time>
      </trkpt>
      <trkpt lat="44.49761" lon="1.26283">
        <ele>236.62</ele>
        <time>2022-05-21T07:58:51Z</time>
      </trkpt>
      <trkpt lat="44.49766" lon="1.26287">
        <ele>236.62</ele>
        <time>2022-05-21T07:59:08Z</time>
      </trkpt>
      <trkpt lat="44.49767" lon="1.26287">
        <ele>236.62</ele>
        <time>2022-05-21T07:59:25Z</time>
      </trkpt>
      <trkpt lat="44.49764" lon="1.26284">
        <ele>236.62</ele>
        <time>2022-05-21T07:59:42Z</time>
      </trkpt>
      <trkpt lat="44.49763" lon="1.26283">
        <ele>236.62</ele>
        <time>2022-05-21T08:00:01Z</time>
      </trkpt>
      <trkpt lat="44.49765" lon="1.26285">
        <ele>236.62</ele>
        <time>2022-05-21T08:00:19Z</time>
      </trkpt>
      <trkpt lat="44.49767" lon="1.26285">
        <ele>236.62</ele>
        <time>2022-05-21T08:00:39Z</time>
      </trkpt>
      <trkpt lat="44.49766" lon="1.26283">
        <ele>236.62</ele>
        <time>2022-05-21T08:01:00Z</time>
      </trkpt>
      <trkpt lat="44.49767" lon="1.26285">
        <ele>236.62</ele>
        <time>2022-05-21T08:01:17Z</time>
      </trkpt>
      <trkpt lat="44.49768" lon="1.26285">
        <ele>236.62</ele>
        <time>2022-05-21T08:01:42Z</time>
      </trkpt>
      <trkpt lat="44.4977" lon="1.26284">
        <ele>237.1</ele>
        <time>2022-05-21T08:02:04Z</time>
      </trkpt>
      <trkpt lat="44.49768" lon="1.26286">
        <ele>237.1</ele>
        <time>2022-05-21T08:02:26Z</time>
      </trkpt>
      <trkpt lat="44.49766" lon="1.26287">
        <ele>237.1</ele>
        <time>2022-05-21T08:02:46Z</time>
      </trkpt>
      <trkpt lat="44.49767" lon="1.26287">
        <ele>237.1</ele>
        <time>2022-05-21T08:03:05Z</time>
      </trkpt>
      <trkpt lat="44.49767" lon="1.26286">
        <ele>237.1</ele>
        <time>2022-05-21T08:03:21Z</time>
      </trkpt>
      <trkpt lat="44.49767" lon="1.26284">
        <ele>237.1</ele>
        <time>2022-05-21T08:03:39Z</time>
      </trkpt>
      <trkpt lat="44.49767" lon="1.26285">
        <ele>237.1</ele>
        <time>2022-05-21T08:04:04Z</time>
      </trkpt>
      <trkpt lat="44.49769" lon="1.26286">
        <ele>237.1</ele>
        <time>2022-05-21T08:04:27Z</time>
      </trkpt>
      <trkpt lat="44.4977" lon="1.26286">
        <ele>237.1</ele>
        <time>2022-05-21T08:04:48Z</time>
      </trkpt>
      <trkpt lat="44.49772" lon="1.26285">
        <ele>237.1</ele>
        <time>2022-05-21T08:05:13Z</time>
      </trkpt>
      <trkpt lat="44.4977" lon="1.26287">
        <ele>237.1</ele>
        <time>2022-05-21T08:05:40Z</time>
      </trkpt>
      <trkpt lat="44.49769" lon="1.26287">
        <ele>237.1</ele>
        <time>2022-05-21T08:06:00Z</time>
      </trkpt>
      <trkpt lat="44.49769" lon="1.26283">
        <ele>237.1</ele>
        <time>2022-05-21T08:06:26Z</time>
      </trkpt>
      <trkpt lat="44.4977" lon="1.26283">
        <ele>237.1</ele>
        <time>2022-05-21T08:06:43Z</time>
      </trkpt>
      <trkpt lat="44.4977" lon="1.26283">
        <ele>237.1</ele>
        <time>2022-05-21T08:07:06Z</time>
      </trkpt>
      <trkpt lat="44.49773" lon="1.2628">
        <ele>237.1</ele>
        <time>2022-05-21T08:07:16Z</time>
      </trkpt>
      <trkpt lat="44.49785" lon="1.26274">
        <ele>238.54</ele>
        <time>2022-05-21T08:07:30Z</time>
      </trkpt>
      <trkpt lat="44.4979" lon="1.26271">
        <ele>238.54</ele>
        <time>2022-05-21T08:07:36Z</time>
      </trkpt>
      <trkpt lat="44.49797" lon="1.26268">
        <ele>238.54</ele>
        <time>2022-05-21T08:07:49Z</time>
      </trkpt>
      <trkpt lat="44.49809" lon="1.26257">
        <ele>238.54</ele>
        <time>2022-05-21T08:08:03Z</time>
      </trkpt>
      <trkpt lat="44.49819" lon="1.26252">
        <ele>237.1</ele>
        <time>2022-05-21T08:08:12Z</time>
      </trkpt>
      <trkpt lat="44.49837" lon="1.26241">
        <ele>235.66</ele>
        <time>2022-05-21T08:08:31Z</time>
      </trkpt>
      <trkpt lat="44.49852" lon="1.26232">
        <ele>234.7</ele>
        <time>2022-05-21T08:08:46Z</time>
      </trkpt>
      <trkpt lat="44.49867" lon="1.2622">
        <ele>233.26</ele>
        <time>2022-05-21T08:09:02Z</time>
      </trkpt>
      <trkpt lat="44.49881" lon="1.26209">
        <ele>231.81</ele>
        <time>2022-05-21T08:09:17Z</time>
      </trkpt>
      <trkpt lat="44.49898" lon="1.26198">
        <ele>230.85</ele>
        <time>2022-05-21T08:09:36Z</time>
      </trkpt>
      <trkpt lat="44.49915" lon="1.26195">
        <ele>230.37</ele>
        <time>2022-05-21T08:09:52Z</time>
      </trkpt>
      <trkpt lat="44.49928" lon="1.26193">
        <ele>229.89</ele>
        <time>2022-05-21T08:10:07Z</time>
      </trkpt>
      <trkpt lat="44.49929" lon="1.26193">
        <ele>229.89</ele>
        <time>2022-05-21T08:10:08Z</time>
      </trkpt>
      <trkpt lat="44.4995" lon="1.26191">
        <ele>229.41</ele>
        <time>2022-05-21T08:10:27Z</time>
      </trkpt>
      <trkpt lat="44.49956" lon="1.26187">
        <ele>229.41</ele>
        <time>2022-05-21T08:10:41Z</time>
      </trkpt>
      <trkpt lat="44.4997" lon="1.26183">
        <ele>229.41</ele>
        <time>2022-05-21T08:10:53Z</time>
      </trkpt>
      <trkpt lat="44.4999" lon="1.26168">
        <ele>231.33</ele>
        <time>2022-05-21T08:11:11Z</time>
      </trkpt>
      <trkpt lat="44.50001" lon="1.26154">
        <ele>232.78</ele>
        <time>2022-05-21T08:11:23Z</time>
      </trkpt>
      <trkpt lat="44.50015" lon="1.26138">
        <ele>233.26</ele>
        <time>2022-05-21T08:11:39Z</time>
      </trkpt>
      <trkpt lat="44.50021" lon="1.2613">
        <ele>233.74</ele>
        <time>2022-05-21T08:11:47Z</time>
      </trkpt>
      <trkpt lat="44.50023" lon="1.26127">
        <ele>233.74</ele>
        <time>2022-05-21T08:11:50Z</time>
      </trkpt>
      <trkpt lat="44.50032" lon="1.26119">
        <ele>234.7</ele>
        <time>2022-05-21T08:12:07Z</time>
      </trkpt>
      <trkpt lat="44.50043" lon="1.26112">
        <ele>236.62</ele>
        <time>2022-05-21T08:12:18Z</time>
      </trkpt>
      <trkpt lat="44.50046" lon="1.26112">
        <ele>235.18</ele>
        <time>2022-05-21T08:12:21Z</time>
      </trkpt>
      <trkpt lat="44.5006" lon="1.26103">
        <ele>234.7</ele>
        <time>2022-05-21T08:12:37Z</time>
      </trkpt>
      <trkpt lat="44.50075" lon="1.26095">
        <ele>233.26</ele>
        <time>2022-05-21T08:12:54Z</time>
      </trkpt>
      <trkpt lat="44.50086" lon="1.26086">
        <ele>232.3</ele>
        <time>2022-05-21T08:13:06Z</time>
      </trkpt>
      <trkpt lat="44.50099" lon="1.26074">
        <ele>230.85</ele>
        <time>2022-05-21T08:13:22Z</time>
      </trkpt>
      <trkpt lat="44.50115" lon="1.26061">
        <ele>229.41</ele>
        <time>2022-05-21T08:13:38Z</time>
      </trkpt>
      <trkpt lat="44.50124" lon="1.26054">
        <ele>228.45</ele>
        <time>2022-05-21T08:13:46Z</time>
      </trkpt>
      <trkpt lat="44.50139" lon="1.2604">
        <ele>227.01</ele>
        <time>2022-05-21T08:14:02Z</time>
      </trkpt>
      <trkpt lat="44.5015" lon="1.26022">
        <ele>225.09</ele>
        <time>2022-05-21T08:14:20Z</time>
      </trkpt>
      <trkpt lat="44.50146" lon="1.26015">
        <ele>227.01</ele>
        <time>2022-05-21T08:14:27Z</time>
      </trkpt>
      <trkpt lat="44.50133" lon="1.26">
        <ele>227.01</ele>
        <time>2022-05-21T08:14:43Z</time>
      </trkpt>
      <trkpt lat="44.50119" lon="1.25991">
        <ele>227.01</ele>
        <time>2022-05-21T08:14:58Z</time>
      </trkpt>
      <trkpt lat="44.50105" lon="1.25984">
        <ele>225.09</ele>
        <time>2022-05-21T08:15:15Z</time>
      </trkpt>
      <trkpt lat="44.50086" lon="1.25977">
        <ele>224.12</ele>
        <time>2022-05-21T08:15:34Z</time>
      </trkpt>
      <trkpt lat="44.5007" lon="1.25971">
        <ele>222.68</ele>
        <time>2022-05-21T08:15:50Z</time>
      </trkpt>
      <trkpt lat="44.50053" lon="1.25965">
        <ele>221.24</ele>
        <time>2022-05-21T08:16:07Z</time>
      </trkpt>
      <trkpt lat="44.50033" lon="1.25962">
        <ele>220.28</ele>
        <time>2022-05-21T08:16:25Z</time>
      </trkpt>
      <trkpt lat="44.50016" lon="1.25961">
        <ele>218.84</ele>
        <time>2022-05-21T08:16:41Z</time>
      </trkpt>
      <trkpt lat="44.50003" lon="1.25961">
        <ele>217.88</ele>
        <time>2022-05-21T08:16:54Z</time>
      </trkpt>
      <trkpt lat="44.50003" lon="1.25961">
        <ele>217.88</ele>
        <time>2022-05-21T08:16:55Z</time>
      </trkpt>
      <trkpt lat="44.49985" lon="1.25955">
        <ele>217.88</ele>
        <time>2022-05-21T08:17:11Z</time>
      </trkpt>
      <trkpt lat="44.49964" lon="1.25949">
        <ele>217.88</ele>
        <time>2022-05-21T08:17:30Z</time>
      </trkpt>
      <trkpt lat="44.49951" lon="1.2594">
        <ele>219.8</ele>
        <time>2022-05-21T08:17:45Z</time>
      </trkpt>
      <trkpt lat="44.49937" lon="1.25931">
        <ele>222.2</ele>
        <time>2022-05-21T08:18:03Z</time>
      </trkpt>
      <trkpt lat="44.49929" lon="1.25931">
        <ele>223.64</ele>
        <time>2022-05-21T08:18:19Z</time>
      </trkpt>
      <trkpt lat="44.49928" lon="1.25932">
        <ele>223.64</ele>
        <time>2022-05-21T08:18:21Z</time>
      </trkpt>
      <trkpt lat="44.49915" lon="1.2594">
        <ele>225.09</ele>
        <time>2022-05-21T08:18:37Z</time>
      </trkpt>
      <trkpt lat="44.49895" lon="1.25942">
        <ele>226.53</ele>
        <time>2022-05-21T08:18:57Z</time>
      </trkpt>
      <trkpt lat="44.49881" lon="1.25935">
        <ele>227.49</ele>
        <time>2022-05-21T08:19:11Z</time>
      </trkpt>
      <trkpt lat="44.49872" lon="1.25912">
        <ele>227.49</ele>
        <time>2022-05-21T08:19:28Z</time>
      </trkpt>
      <trkpt lat="44.49859" lon="1.25893">
        <ele>227.49</ele>
        <time>2022-05-21T08:19:46Z</time>
      </trkpt>
      <trkpt lat="44.49855" lon="1.25886">
        <ele>227.49</ele>
        <time>2022-05-21T08:19:52Z</time>
      </trkpt>
      <trkpt lat="44.49843" lon="1.25868">
        <ele>227.49</ele>
        <time>2022-05-21T08:20:09Z</time>
      </trkpt>
      <trkpt lat="44.49835" lon="1.25845">
        <ele>227.01</ele>
        <time>2022-05-21T08:20:25Z</time>
      </trkpt>
      <trkpt lat="44.49835" lon="1.25829">
        <ele>227.01</ele>
        <time>2022-05-21T08:20:35Z</time>
      </trkpt>
      <trkpt lat="44.49839" lon="1.25801">
        <ele>227.01</ele>
        <time>2022-05-21T08:20:54Z</time>
      </trkpt>
      <trkpt lat="44.49846" lon="1.25781">
        <ele>227.01</ele>
        <time>2022-05-21T08:21:08Z</time>
      </trkpt>
      <trkpt lat="44.49857" lon="1.25764">
        <ele>227.01</ele>
        <time>2022-05-21T08:21:24Z</time>
      </trkpt>
      <trkpt lat="44.49868" lon="1.25751">
        <ele>227.01</ele>
        <time>2022-05-21T08:21:39Z</time>
      </trkpt>
      <trkpt lat="44.49877" lon="1.25744">
        <ele>226.05</ele>
        <time>2022-05-21T08:21:49Z</time>
      </trkpt>
      <trkpt lat="44.4989" lon="1.25733">
        <ele>226.05</ele>
        <time>2022-05-21T08:22:05Z</time>
      </trkpt>
      <trkpt lat="44.49903" lon="1.25724">
        <ele>225.09</ele>
        <time>2022-05-21T08:22:19Z</time>
      </trkpt>
      <trkpt lat="44.49915" lon="1.25711">
        <ele>225.09</ele>
        <time>2022-05-21T08:22:33Z</time>
      </trkpt>
      <trkpt lat="44.49927" lon="1.25697">
        <ele>224.12</ele>
        <time>2022-05-21T08:22:48Z</time>
      </trkpt>
      <trkpt lat="44.4994" lon="1.25683">
        <ele>223.64</ele>
        <time>2022-05-21T08:23:03Z</time>
      </trkpt>
      <trkpt lat="44.4995" lon="1.25662">
        <ele>223.16</ele>
        <time>2022-05-21T08:23:19Z</time>
      </trkpt>
      <trkpt lat="44.49957" lon="1.25637">
        <ele>221.72</ele>
        <time>2022-05-21T08:23:34Z</time>
      </trkpt>
      <trkpt lat="44.49958" lon="1.25615">
        <ele>220.76</ele>
        <time>2022-05-21T08:23:50Z</time>
      </trkpt>
      <trkpt lat="44.49956" lon="1.25589">
        <ele>219.8</ele>
        <time>2022-05-21T08:24:09Z</time>
      </trkpt>
      <trkpt lat="44.49956" lon="1.25582">
        <ele>219.32</ele>
        <time>2022-05-21T08:24:13Z</time>
      </trkpt>
      <trkpt lat="44.49955" lon="1.25579">
        <ele>219.32</ele>
        <time>2022-05-21T08:24:15Z</time>
      </trkpt>
      <trkpt lat="44.49953" lon="1.25554">
        <ele>218.84</ele>
        <time>2022-05-21T08:24:29Z</time>
      </trkpt>
      <trkpt lat="44.49953" lon="1.25552">
        <ele>218.84</ele>
        <time>2022-05-21T08:24:30Z</time>
      </trkpt>
      <trkpt lat="44.49952" lon="1.25528">
        <ele>217.88</ele>
        <time>2022-05-21T08:24:46Z</time>
      </trkpt>
      <trkpt lat="44.49953" lon="1.25507">
        <ele>217.4</ele>
        <time>2022-05-21T08:25:01Z</time>
      </trkpt>
      <trkpt lat="44.49955" lon="1.2548">
        <ele>216.43</ele>
        <time>2022-05-21T08:25:19Z</time>
      </trkpt>
      <trkpt lat="44.49955" lon="1.25466">
        <ele>215.95</ele>
        <time>2022-05-21T08:25:28Z</time>
      </trkpt>
      <trkpt lat="44.49955" lon="1.25457">
        <ele>215.47</ele>
        <time>2022-05-21T08:25:34Z</time>
      </trkpt>
      <trkpt lat="44.49955" lon="1.25439">
        <ele>214.51</ele>
        <time>2022-05-21T08:25:49Z</time>
      </trkpt>
      <trkpt lat="44.49951" lon="1.25416">
        <ele>213.55</ele>
        <time>2022-05-21T08:26:07Z</time>
      </trkpt>
      <trkpt lat="44.49945" lon="1.25396">
        <ele>212.59</ele>
        <time>2022-05-21T08:26:21Z</time>
      </trkpt>
      <trkpt lat="44.49943" lon="1.25388">
        <ele>212.11</ele>
        <time>2022-05-21T08:26:27Z</time>
      </trkpt>
      <trkpt lat="44.4993" lon="1.25368">
        <ele>211.63</ele>
        <time>2022-05-21T08:26:44Z</time>
      </trkpt>
      <trkpt lat="44.49919" lon="1.25353">
        <ele>210.67</ele>
        <time>2022-05-21T08:26:59Z</time>
      </trkpt>
      <trkpt lat="44.49919" lon="1.25336">
        <ele>209.7</ele>
        <time>2022-05-21T08:27:13Z</time>
      </trkpt>
      <trkpt lat="44.49921" lon="1.25332">
        <ele>209.22</ele>
        <time>2022-05-21T08:27:17Z</time>
      </trkpt>
      <trkpt lat="44.49925" lon="1.25319">
        <ele>208.74</ele>
        <time>2022-05-21T08:27:34Z</time>
      </trkpt>
      <trkpt lat="44.49926" lon="1.25318">
        <ele>208.74</ele>
        <time>2022-05-21T08:27:35Z</time>
      </trkpt>
      <trkpt lat="44.4994" lon="1.25305">
        <ele>208.74</ele>
        <time>2022-05-21T08:27:51Z</time>
      </trkpt>
      <trkpt lat="44.49957" lon="1.25294">
        <ele>210.19</ele>
        <time>2022-05-21T08:28:07Z</time>
      </trkpt>
      <trkpt lat="44.4997" lon="1.25284">
        <ele>211.15</ele>
        <time>2022-05-21T08:28:23Z</time>
      </trkpt>
      <trkpt lat="44.49985" lon="1.25268">
        <ele>212.11</ele>
        <time>2022-05-21T08:28:40Z</time>
      </trkpt>
      <trkpt lat="44.49988" lon="1.25265">
        <ele>212.11</ele>
        <time>2022-05-21T08:28:44Z</time>
      </trkpt>
      <trkpt lat="44.50002" lon="1.2525">
        <ele>213.55</ele>
        <time>2022-05-21T08:29:01Z</time>
      </trkpt>
      <trkpt lat="44.50009" lon="1.25224">
        <ele>214.51</ele>
        <time>2022-05-21T08:29:18Z</time>
      </trkpt>
      <trkpt lat="44.50013" lon="1.25216">
        <ele>214.99</ele>
        <time>2022-05-21T08:29:31Z</time>
      </trkpt>
      <trkpt lat="44.50014" lon="1.25215">
        <ele>214.99</ele>
        <time>2022-05-21T08:29:33Z</time>
      </trkpt>
      <trkpt lat="44.50021" lon="1.25191">
        <ele>215.95</ele>
        <time>2022-05-21T08:29:50Z</time>
      </trkpt>
      <trkpt lat="44.50035" lon="1.25171">
        <ele>217.4</ele>
        <time>2022-05-21T08:30:08Z</time>
      </trkpt>
      <trkpt lat="44.5005" lon="1.25156">
        <ele>218.36</ele>
        <time>2022-05-21T08:30:26Z</time>
      </trkpt>
      <trkpt lat="44.50062" lon="1.25143">
        <ele>219.32</ele>
        <time>2022-05-21T08:30:41Z</time>
      </trkpt>
      <trkpt lat="44.50073" lon="1.25131">
        <ele>220.28</ele>
        <time>2022-05-21T08:30:57Z</time>
      </trkpt>
      <trkpt lat="44.50079" lon="1.25113">
        <ele>221.72</ele>
        <time>2022-05-21T08:31:12Z</time>
      </trkpt>
      <trkpt lat="44.50075" lon="1.25107">
        <ele>222.68</ele>
        <time>2022-05-21T08:31:27Z</time>
      </trkpt>
      <trkpt lat="44.5007" lon="1.25104">
        <ele>223.16</ele>
        <time>2022-05-21T08:31:34Z</time>
      </trkpt>
      <trkpt lat="44.50057" lon="1.25094">
        <ele>224.61</ele>
        <time>2022-05-21T08:31:49Z</time>
      </trkpt>
      <trkpt lat="44.50054" lon="1.25087">
        <ele>225.57</ele>
        <time>2022-05-21T08:32:01Z</time>
      </trkpt>
      <trkpt lat="44.5005" lon="1.25068">
        <ele>226.53</ele>
        <time>2022-05-21T08:32:17Z</time>
      </trkpt>
      <trkpt lat="44.50046" lon="1.25054">
        <ele>227.01</ele>
        <time>2022-05-21T08:32:30Z</time>
      </trkpt>
      <trkpt lat="44.50041" lon="1.25049">
        <ele>227.01</ele>
        <time>2022-05-21T08:32:40Z</time>
      </trkpt>
      <trkpt lat="44.50038" lon="1.25046">
        <ele>226.53</ele>
        <time>2022-05-21T08:32:45Z</time>
      </trkpt>
      <trkpt lat="44.50033" lon="1.25045">
        <ele>227.01</ele>
        <time>2022-05-21T08:32:49Z</time>
      </trkpt>
      <trkpt lat="44.50022" lon="1.25045">
        <ele>227.01</ele>
        <time>2022-05-21T08:33:04Z</time>
      </trkpt>
      <trkpt lat="44.50014" lon="1.25036">
        <ele>227.49</ele>
        <time>2022-05-21T08:33:18Z</time>
      </trkpt>
      <trkpt lat="44.50009" lon="1.25031">
        <ele>227.49</ele>
        <time>2022-05-21T08:33:24Z</time>
      </trkpt>
      <trkpt lat="44.49999" lon="1.25023">
        <ele>227.49</ele>
        <time>2022-05-21T08:33:38Z</time>
      </trkpt>
      <trkpt lat="44.49983" lon="1.25009">
        <ele>227.49</ele>
        <time>2022-05-21T08:33:55Z</time>
      </trkpt>
      <trkpt lat="44.49972" lon="1.24988">
        <ele>227.49</ele>
        <time>2022-05-21T08:34:11Z</time>
      </trkpt>
      <trkpt lat="44.49962" lon="1.24967">
        <ele>227.49</ele>
        <time>2022-05-21T08:34:28Z</time>
      </trkpt>
      <trkpt lat="44.49955" lon="1.24954">
        <ele>227.49</ele>
        <time>2022-05-21T08:34:42Z</time>
      </trkpt>
      <trkpt lat="44.49944" lon="1.24936">
        <ele>227.49</ele>
        <time>2022-05-21T08:34:58Z</time>
      </trkpt>
      <trkpt lat="44.49942" lon="1.2493">
        <ele>226.05</ele>
        <time>2022-05-21T08:35:02Z</time>
      </trkpt>
      <trkpt lat="44.49942" lon="1.24923">
        <ele>226.05</ele>
        <time>2022-05-21T08:35:07Z</time>
      </trkpt>
      <trkpt lat="44.49946" lon="1.24903">
        <ele>225.57</ele>
        <time>2022-05-21T08:35:23Z</time>
      </trkpt>
      <trkpt lat="44.49952" lon="1.2489">
        <ele>225.57</ele>
        <time>2022-05-21T08:35:35Z</time>
      </trkpt>
      <trkpt lat="44.49963" lon="1.24863">
        <ele>226.53</ele>
        <time>2022-05-21T08:35:55Z</time>
      </trkpt>
      <trkpt lat="44.49969" lon="1.24845">
        <ele>225.09</ele>
        <time>2022-05-21T08:36:09Z</time>
      </trkpt>
      <trkpt lat="44.49969" lon="1.24844">
        <ele>225.09</ele>
        <time>2022-05-21T08:36:10Z</time>
      </trkpt>
      <trkpt lat="44.49975" lon="1.24828">
        <ele>226.05</ele>
        <time>2022-05-21T08:36:22Z</time>
      </trkpt>
      <trkpt lat="44.49982" lon="1.24802">
        <ele>226.05</ele>
        <time>2022-05-21T08:36:39Z</time>
      </trkpt>
      <trkpt lat="44.49987" lon="1.24776">
        <ele>226.05</ele>
        <time>2022-05-21T08:36:55Z</time>
      </trkpt>
      <trkpt lat="44.49988" lon="1.24763">
        <ele>226.05</ele>
        <time>2022-05-21T08:37:03Z</time>
      </trkpt>
      <trkpt lat="44.49991" lon="1.24757">
        <ele>226.05</ele>
        <time>2022-05-21T08:37:16Z</time>
      </trkpt>
      <trkpt lat="44.49994" lon="1.24755">
        <ele>226.05</ele>
        <time>2022-05-21T08:37:21Z</time>
      </trkpt>
      <trkpt lat="44.50005" lon="1.24736">
        <ele>226.05</ele>
        <time>2022-05-21T08:37:37Z</time>
      </trkpt>
      <trkpt lat="44.50019" lon="1.24718">
        <ele>227.01</ele>
        <time>2022-05-21T08:37:53Z</time>
      </trkpt>
      <trkpt lat="44.50023" lon="1.24714">
        <ele>227.49</ele>
        <time>2022-05-21T08:38:03Z</time>
      </trkpt>
      <trkpt lat="44.50032" lon="1.24703">
        <ele>227.97</ele>
        <time>2022-05-21T08:38:16Z</time>
      </trkpt>
      <trkpt lat="44.50046" lon="1.24684">
        <ele>228.93</ele>
        <time>2022-05-21T08:38:34Z</time>
      </trkpt>
      <trkpt lat="44.50062" lon="1.24671">
        <ele>229.41</ele>
        <time>2022-05-21T08:38:51Z</time>
      </trkpt>
      <trkpt lat="44.50081" lon="1.24661">
        <ele>230.85</ele>
        <time>2022-05-21T08:39:10Z</time>
      </trkpt>
      <trkpt lat="44.50098" lon="1.24651">
        <ele>230.85</ele>
        <time>2022-05-21T08:39:26Z</time>
      </trkpt>
      <trkpt lat="44.50114" lon="1.24644">
        <ele>230.85</ele>
        <time>2022-05-21T08:39:42Z</time>
      </trkpt>
      <trkpt lat="44.50127" lon="1.24639">
        <ele>229.41</ele>
        <time>2022-05-21T08:39:57Z</time>
      </trkpt>
      <trkpt lat="44.50138" lon="1.24634">
        <ele>229.41</ele>
        <time>2022-05-21T08:40:07Z</time>
      </trkpt>
      <trkpt lat="44.50152" lon="1.24627">
        <ele>228.93</ele>
        <time>2022-05-21T08:40:23Z</time>
      </trkpt>
      <trkpt lat="44.50155" lon="1.24626">
        <ele>228.93</ele>
        <time>2022-05-21T08:40:25Z</time>
      </trkpt>
      <trkpt lat="44.50176" lon="1.24615">
        <ele>228.93</ele>
        <time>2022-05-21T08:40:41Z</time>
      </trkpt>
      <trkpt lat="44.5019" lon="1.24607">
        <ele>228.93</ele>
        <time>2022-05-21T08:40:56Z</time>
      </trkpt>
      <trkpt lat="44.50206" lon="1.24596">
        <ele>230.37</ele>
        <time>2022-05-21T08:41:12Z</time>
      </trkpt>
      <trkpt lat="44.50221" lon="1.24584">
        <ele>230.85</ele>
        <time>2022-05-21T08:41:28Z</time>
      </trkpt>
      <trkpt lat="44.50235" lon="1.24575">
        <ele>232.3</ele>
        <time>2022-05-21T08:41:45Z</time>
      </trkpt>
      <trkpt lat="44.50236" lon="1.24574">
        <ele>232.3</ele>
        <time>2022-05-21T08:41:46Z</time>
      </trkpt>
      <trkpt lat="44.50251" lon="1.24567">
        <ele>233.74</ele>
        <time>2022-05-21T08:42:01Z</time>
      </trkpt>
      <trkpt lat="44.50265" lon="1.24557">
        <ele>234.22</ele>
        <time>2022-05-21T08:42:17Z</time>
      </trkpt>
      <trkpt lat="44.5027" lon="1.24548">
        <ele>234.7</ele>
        <time>2022-05-21T08:42:29Z</time>
      </trkpt>
      <trkpt lat="44.50276" lon="1.2453">
        <ele>234.7</ele>
        <time>2022-05-21T08:42:45Z</time>
      </trkpt>
      <trkpt lat="44.50279" lon="1.24513">
        <ele>233.74</ele>
        <time>2022-05-21T08:42:59Z</time>
      </trkpt>
      <trkpt lat="44.50283" lon="1.24493">
        <ele>233.74</ele>
        <time>2022-05-21T08:43:13Z</time>
      </trkpt>
      <trkpt lat="44.50289" lon="1.2447">
        <ele>232.78</ele>
        <time>2022-05-21T08:43:29Z</time>
      </trkpt>
      <trkpt lat="44.5029" lon="1.24467">
        <ele>231.33</ele>
        <time>2022-05-21T08:43:31Z</time>
      </trkpt>
      <trkpt lat="44.50291" lon="1.24464">
        <ele>232.78</ele>
        <time>2022-05-21T08:43:33Z</time>
      </trkpt>
      <trkpt lat="44.50301" lon="1.24446">
        <ele>231.33</ele>
        <time>2022-05-21T08:43:46Z</time>
      </trkpt>
      <trkpt lat="44.50311" lon="1.24435">
        <ele>230.85</ele>
        <time>2022-05-21T08:44:01Z</time>
      </trkpt>
      <trkpt lat="44.50312" lon="1.24435">
        <ele>230.85</ele>
        <time>2022-05-21T08:44:03Z</time>
      </trkpt>
      <trkpt lat="44.50315" lon="1.2442">
        <ele>230.37</ele>
        <time>2022-05-21T08:44:14Z</time>
      </trkpt>
      <trkpt lat="44.50316" lon="1.24404">
        <ele>230.37</ele>
        <time>2022-05-21T08:44:23Z</time>
      </trkpt>
      <trkpt lat="44.50318" lon="1.24399">
        <ele>229.89</ele>
        <time>2022-05-21T08:44:26Z</time>
      </trkpt>
      <trkpt lat="44.50319" lon="1.2437">
        <ele>229.41</ele>
        <time>2022-05-21T08:44:43Z</time>
      </trkpt>
      <trkpt lat="44.5032" lon="1.24355">
        <ele>228.93</ele>
        <time>2022-05-21T08:44:53Z</time>
      </trkpt>
      <trkpt lat="44.50323" lon="1.24328">
        <ele>227.97</ele>
        <time>2022-05-21T08:45:11Z</time>
      </trkpt>
      <trkpt lat="44.50325" lon="1.24304">
        <ele>227.01</ele>
        <time>2022-05-21T08:45:27Z</time>
      </trkpt>
      <trkpt lat="44.5032" lon="1.24279">
        <ele>226.53</ele>
        <time>2022-05-21T08:45:44Z</time>
      </trkpt>
      <trkpt lat="44.50309" lon="1.24259">
        <ele>226.53</ele>
        <time>2022-05-21T08:46:01Z</time>
      </trkpt>
      <trkpt lat="44.503" lon="1.24242">
        <ele>226.53</ele>
        <time>2022-05-21T08:46:15Z</time>
      </trkpt>
      <trkpt lat="44.5029" lon="1.24224">
        <ele>226.53</ele>
        <time>2022-05-21T08:46:31Z</time>
      </trkpt>
      <trkpt lat="44.50279" lon="1.24203">
        <ele>228.45</ele>
        <time>2022-05-21T08:46:48Z</time>
      </trkpt>
      <trkpt lat="44.50268" lon="1.24187">
        <ele>229.89</ele>
        <time>2022-05-21T08:47:04Z</time>
      </trkpt>
      <trkpt lat="44.50257" lon="1.24173">
        <ele>231.33</ele>
        <time>2022-05-21T08:47:18Z</time>
      </trkpt>
      <trkpt lat="44.50242" lon="1.2416">
        <ele>232.78</ele>
        <time>2022-05-21T08:47:35Z</time>
      </trkpt>
      <trkpt lat="44.50228" lon="1.24148">
        <ele>235.66</ele>
        <time>2022-05-21T08:47:51Z</time>
      </trkpt>
      <trkpt lat="44.50221" lon="1.24134">
        <ele>237.58</ele>
        <time>2022-05-21T08:48:05Z</time>
      </trkpt>
      <trkpt lat="44.50214" lon="1.24123">
        <ele>239.51</ele>
        <time>2022-05-21T08:48:20Z</time>
      </trkpt>
      <trkpt lat="44.50211" lon="1.2411">
        <ele>240.47</ele>
        <time>2022-05-21T08:48:36Z</time>
      </trkpt>
      <trkpt lat="44.50216" lon="1.24107">
        <ele>240.47</ele>
        <time>2022-05-21T08:48:54Z</time>
      </trkpt>
      <trkpt lat="44.50228" lon="1.24094">
        <ele>240.95</ele>
        <time>2022-05-21T08:49:11Z</time>
      </trkpt>
      <trkpt lat="44.50236" lon="1.24086">
        <ele>240.95</ele>
        <time>2022-05-21T08:49:21Z</time>
      </trkpt>
      <trkpt lat="44.50253" lon="1.2407">
        <ele>240.95</ele>
        <time>2022-05-21T08:49:38Z</time>
      </trkpt>
      <trkpt lat="44.50271" lon="1.24057">
        <ele>238.54</ele>
        <time>2022-05-21T08:49:55Z</time>
      </trkpt>
      <trkpt lat="44.50282" lon="1.24047">
        <ele>236.62</ele>
        <time>2022-05-21T08:50:08Z</time>
      </trkpt>
      <trkpt lat="44.50301" lon="1.24035">
        <ele>236.14</ele>
        <time>2022-05-21T08:50:25Z</time>
      </trkpt>
      <trkpt lat="44.50327" lon="1.24017">
        <ele>236.62</ele>
        <time>2022-05-21T08:50:45Z</time>
      </trkpt>
      <trkpt lat="44.50342" lon="1.24002">
        <ele>236.62</ele>
        <time>2022-05-21T08:51:00Z</time>
      </trkpt>
      <trkpt lat="44.50362" lon="1.23981">
        <ele>236.62</ele>
        <time>2022-05-21T08:51:17Z</time>
      </trkpt>
      <trkpt lat="44.50375" lon="1.23958">
        <ele>236.62</ele>
        <time>2022-05-21T08:51:32Z</time>
      </trkpt>
      <trkpt lat="44.50383" lon="1.2394">
        <ele>235.66</ele>
        <time>2022-05-21T08:51:46Z</time>
      </trkpt>
      <trkpt lat="44.50391" lon="1.23916">
        <ele>235.18</ele>
        <time>2022-05-21T08:52:03Z</time>
      </trkpt>
      <trkpt lat="44.50393" lon="1.23894">
        <ele>235.18</ele>
        <time>2022-05-21T08:52:18Z</time>
      </trkpt>
      <trkpt lat="44.50394" lon="1.23873">
        <ele>234.7</ele>
        <time>2022-05-21T08:52:32Z</time>
      </trkpt>
      <trkpt lat="44.50396" lon="1.23845">
        <ele>233.74</ele>
        <time>2022-05-21T08:52:51Z</time>
      </trkpt>
      <trkpt lat="44.50399" lon="1.2382">
        <ele>232.78</ele>
        <time>2022-05-21T08:53:07Z</time>
      </trkpt>
      <trkpt lat="44.50402" lon="1.23798">
        <ele>231.33</ele>
        <time>2022-05-21T08:53:21Z</time>
      </trkpt>
      <trkpt lat="44.50407" lon="1.23774">
        <ele>229.41</ele>
        <time>2022-05-21T08:53:38Z</time>
      </trkpt>
      <trkpt lat="44.5041" lon="1.23768">
        <ele>226.53</ele>
        <time>2022-05-21T08:53:48Z</time>
      </trkpt>
      <trkpt lat="44.5041" lon="1.23768">
        <ele>228.45</ele>
        <time>2022-05-21T08:53:50Z</time>
      </trkpt>
      <trkpt lat="44.50414" lon="1.23753">
        <ele>227.97</ele>
        <time>2022-05-21T08:54:12Z</time>
      </trkpt>
      <trkpt lat="44.50419" lon="1.23733">
        <ele>225.09</ele>
        <time>2022-05-21T08:54:28Z</time>
      </trkpt>
      <trkpt lat="44.50422" lon="1.23712">
        <ele>223.64</ele>
        <time>2022-05-21T08:54:42Z</time>
      </trkpt>
      <trkpt lat="44.50425" lon="1.23685">
        <ele>220.76</ele>
        <time>2022-05-21T08:55:00Z</time>
      </trkpt>
      <trkpt lat="44.50425" lon="1.23682">
        <ele>220.76</ele>
        <time>2022-05-21T08:55:02Z</time>
      </trkpt>
      <trkpt lat="44.50431" lon="1.23654">
        <ele>218.36</ele>
        <time>2022-05-21T08:55:21Z</time>
      </trkpt>
      <trkpt lat="44.50439" lon="1.23628">
        <ele>217.4</ele>
        <time>2022-05-21T08:55:39Z</time>
      </trkpt>
      <trkpt lat="44.50444" lon="1.23603">
        <ele>217.4</ele>
        <time>2022-05-21T08:55:55Z</time>
      </trkpt>
      <trkpt lat="44.50445" lon="1.23594">
        <ele>216.91</ele>
        <time>2022-05-21T08:56:01Z</time>
      </trkpt>
      <trkpt lat="44.50445" lon="1.23572">
        <ele>216.91</ele>
        <time>2022-05-21T08:56:17Z</time>
      </trkpt>
      <trkpt lat="44.50446" lon="1.23551">
        <ele>216.91</ele>
        <time>2022-05-21T08:56:33Z</time>
      </trkpt>
      <trkpt lat="44.50452" lon="1.2354">
        <ele>217.88</ele>
        <time>2022-05-21T08:56:49Z</time>
      </trkpt>
      <trkpt lat="44.50461" lon="1.23533">
        <ele>218.84</ele>
        <time>2022-05-21T08:57:05Z</time>
      </trkpt>
      <trkpt lat="44.50465" lon="1.2352">
        <ele>219.32</ele>
        <time>2022-05-21T08:57:21Z</time>
      </trkpt>
      <trkpt lat="44.50473" lon="1.23506">
        <ele>219.8</ele>
        <time>2022-05-21T08:57:35Z</time>
      </trkpt>
      <trkpt lat="44.50482" lon="1.23487">
        <ele>220.28</ele>
        <time>2022-05-21T08:57:52Z</time>
      </trkpt>
      <trkpt lat="44.50493" lon="1.23468">
        <ele>220.28</ele>
        <time>2022-05-21T08:58:09Z</time>
      </trkpt>
      <trkpt lat="44.50504" lon="1.23448">
        <ele>220.28</ele>
        <time>2022-05-21T08:58:25Z</time>
      </trkpt>
      <trkpt lat="44.50512" lon="1.23423">
        <ele>220.28</ele>
        <time>2022-05-21T08:58:42Z</time>
      </trkpt>
      <trkpt lat="44.50523" lon="1.23398">
        <ele>220.28</ele>
        <time>2022-05-21T08:59:00Z</time>
      </trkpt>
      <trkpt lat="44.50533" lon="1.23378">
        <ele>220.28</ele>
        <time>2022-05-21T08:59:17Z</time>
      </trkpt>
      <trkpt lat="44.50543" lon="1.23353">
        <ele>220.28</ele>
        <time>2022-05-21T08:59:33Z</time>
      </trkpt>
      <trkpt lat="44.50549" lon="1.23328">
        <ele>221.24</ele>
        <time>2022-05-21T08:59:51Z</time>
      </trkpt>
      <trkpt lat="44.50549" lon="1.23326">
        <ele>221.24</ele>
        <time>2022-05-21T08:59:53Z</time>
      </trkpt>
      <trkpt lat="44.50549" lon="1.23323">
        <ele>221.24</ele>
        <time>2022-05-21T08:59:55Z</time>
      </trkpt>
      <trkpt lat="44.50535" lon="1.23297">
        <ele>221.24</ele>
        <time>2022-05-21T09:00:16Z</time>
      </trkpt>
      <trkpt lat="44.50522" lon="1.23274">
        <ele>219.8</ele>
        <time>2022-05-21T09:00:33Z</time>
      </trkpt>
      <trkpt lat="44.50511" lon="1.2325">
        <ele>217.88</ele>
        <time>2022-05-21T09:00:51Z</time>
      </trkpt>
      <trkpt lat="44.50497" lon="1.23231">
        <ele>215.95</ele>
        <time>2022-05-21T09:01:08Z</time>
      </trkpt>
      <trkpt lat="44.50482" lon="1.23218">
        <ele>214.99</ele>
        <time>2022-05-21T09:01:24Z</time>
      </trkpt>
      <trkpt lat="44.50479" lon="1.23217">
        <ele>214.51</ele>
        <time>2022-05-21T09:01:27Z</time>
      </trkpt>
      <trkpt lat="44.50459" lon="1.23207">
        <ele>214.03</ele>
        <time>2022-05-21T09:01:44Z</time>
      </trkpt>
      <trkpt lat="44.50441" lon="1.23191">
        <ele>213.07</ele>
        <time>2022-05-21T09:02:02Z</time>
      </trkpt>
      <trkpt lat="44.50431" lon="1.23175">
        <ele>213.07</ele>
        <time>2022-05-21T09:02:19Z</time>
      </trkpt>
      <trkpt lat="44.50427" lon="1.23168">
        <ele>212.59</ele>
        <time>2022-05-21T09:02:34Z</time>
      </trkpt>
      <trkpt lat="44.50426" lon="1.23162">
        <ele>212.11</ele>
        <time>2022-05-21T09:02:48Z</time>
      </trkpt>
      <trkpt lat="44.50428" lon="1.23152">
        <ele>211.63</ele>
        <time>2022-05-21T09:03:01Z</time>
      </trkpt>
      <trkpt lat="44.50423" lon="1.23139">
        <ele>209.22</ele>
        <time>2022-05-21T09:03:18Z</time>
      </trkpt>
      <trkpt lat="44.50416" lon="1.23137">
        <ele>209.7</ele>
        <time>2022-05-21T09:03:34Z</time>
      </trkpt>
      <trkpt lat="44.50415" lon="1.23136">
        <ele>209.7</ele>
        <time>2022-05-21T09:03:35Z</time>
      </trkpt>
      <trkpt lat="44.50409" lon="1.23132">
        <ele>209.22</ele>
        <time>2022-05-21T09:03:52Z</time>
      </trkpt>
      <trkpt lat="44.50406" lon="1.23131">
        <ele>209.22</ele>
        <time>2022-05-21T09:04:16Z</time>
      </trkpt>
      <trkpt lat="44.50407" lon="1.23132">
        <ele>209.22</ele>
        <time>2022-05-21T09:04:35Z</time>
      </trkpt>
      <trkpt lat="44.50407" lon="1.23132">
        <ele>209.22</ele>
        <time>2022-05-21T09:04:52Z</time>
      </trkpt>
      <trkpt lat="44.50408" lon="1.23131">
        <ele>209.22</ele>
        <time>2022-05-21T09:05:11Z</time>
      </trkpt>
      <trkpt lat="44.50408" lon="1.23133">
        <ele>209.22</ele>
        <time>2022-05-21T09:05:25Z</time>
      </trkpt>
      <trkpt lat="44.5041" lon="1.23135">
        <ele>209.22</ele>
        <time>2022-05-21T09:05:38Z</time>
      </trkpt>
      <trkpt lat="44.50414" lon="1.23136">
        <ele>209.22</ele>
        <time>2022-05-21T09:05:56Z</time>
      </trkpt>
      <trkpt lat="44.50421" lon="1.23138">
        <ele>209.22</ele>
        <time>2022-05-21T09:06:10Z</time>
      </trkpt>
      <trkpt lat="44.50431" lon="1.23134">
        <ele>209.22</ele>
        <time>2022-05-21T09:06:26Z</time>
      </trkpt>
      <trkpt lat="44.50439" lon="1.23126">
        <ele>207.3</ele>
        <time>2022-05-21T09:06:43Z</time>
      </trkpt>
      <trkpt lat="44.5044" lon="1.23118">
        <ele>205.86</ele>
        <time>2022-05-21T09:07:00Z</time>
      </trkpt>
      <trkpt lat="44.50436" lon="1.23106">
        <ele>203.94</ele>
        <time>2022-05-21T09:07:14Z</time>
      </trkpt>
      <trkpt lat="44.50443" lon="1.23097">
        <ele>201.53</ele>
        <time>2022-05-21T09:07:29Z</time>
      </trkpt>
      <trkpt lat="44.5044" lon="1.23089">
        <ele>199.61</ele>
        <time>2022-05-21T09:07:44Z</time>
      </trkpt>
      <trkpt lat="44.5045" lon="1.23085">
        <ele>197.69</ele>
        <time>2022-05-21T09:08:01Z</time>
      </trkpt>
      <trkpt lat="44.50443" lon="1.23074">
        <ele>194.8</ele>
        <time>2022-05-21T09:08:17Z</time>
      </trkpt>
      <trkpt lat="44.50449" lon="1.23068">
        <ele>192.88</ele>
        <time>2022-05-21T09:08:31Z</time>
      </trkpt>
      <trkpt lat="44.50449" lon="1.2306">
        <ele>190.48</ele>
        <time>2022-05-21T09:08:46Z</time>
      </trkpt>
      <trkpt lat="44.50444" lon="1.23052">
        <ele>188.56</ele>
        <time>2022-05-21T09:09:05Z</time>
      </trkpt>
      <trkpt lat="44.50452" lon="1.23047">
        <ele>186.15</ele>
        <time>2022-05-21T09:09:22Z</time>
      </trkpt>
      <trkpt lat="44.50457" lon="1.2304">
        <ele>183.75</ele>
        <time>2022-05-21T09:09:39Z</time>
      </trkpt>
      <trkpt lat="44.50451" lon="1.2303">
        <ele>181.35</ele>
        <time>2022-05-21T09:09:55Z</time>
      </trkpt>
      <trkpt lat="44.50454" lon="1.23027">
        <ele>179.9</ele>
        <time>2022-05-21T09:10:11Z</time>
      </trkpt>
      <trkpt lat="44.50459" lon="1.2302">
        <ele>177.98</ele>
        <time>2022-05-21T09:10:28Z</time>
      </trkpt>
      <trkpt lat="44.50454" lon="1.23012">
        <ele>176.06</ele>
        <time>2022-05-21T09:10:43Z</time>
      </trkpt>
      <trkpt lat="44.50457" lon="1.23008">
        <ele>175.1</ele>
        <time>2022-05-21T09:11:01Z</time>
      </trkpt>
      <trkpt lat="44.50461" lon="1.23007">
        <ele>173.17</ele>
        <time>2022-05-21T09:11:19Z</time>
      </trkpt>
      <trkpt lat="44.50464" lon="1.23001">
        <ele>172.69</ele>
        <time>2022-05-21T09:11:37Z</time>
      </trkpt>
      <trkpt lat="44.50457" lon="1.22991">
        <ele>169.81</ele>
        <time>2022-05-21T09:11:56Z</time>
      </trkpt>
      <trkpt lat="44.50461" lon="1.22983">
        <ele>166.93</ele>
        <time>2022-05-21T09:12:11Z</time>
      </trkpt>
      <trkpt lat="44.5046" lon="1.22974">
        <ele>163.56</ele>
        <time>2022-05-21T09:12:24Z</time>
      </trkpt>
      <trkpt lat="44.50456" lon="1.22969">
        <ele>164.04</ele>
        <time>2022-05-21T09:12:30Z</time>
      </trkpt>
      <trkpt lat="44.50449" lon="1.22962">
        <ele>162.12</ele>
        <time>2022-05-21T09:12:44Z</time>
      </trkpt>
      <trkpt lat="44.50439" lon="1.22951">
        <ele>159.24</ele>
        <time>2022-05-21T09:13:00Z</time>
      </trkpt>
      <trkpt lat="44.50427" lon="1.2294">
        <ele>156.83</ele>
        <time>2022-05-21T09:13:18Z</time>
      </trkpt>
      <trkpt lat="44.50414" lon="1.2293">
        <ele>153.95</ele>
        <time>2022-05-21T09:13:35Z</time>
      </trkpt>
      <trkpt lat="44.50396" lon="1.22919">
        <ele>151.06</ele>
        <time>2022-05-21T09:13:51Z</time>
      </trkpt>
      <trkpt lat="44.50382" lon="1.22911">
        <ele>148.18</ele>
        <time>2022-05-21T09:14:07Z</time>
      </trkpt>
      <trkpt lat="44.50372" lon="1.22906">
        <ele>146.74</ele>
        <time>2022-05-21T09:14:20Z</time>
      </trkpt>
      <trkpt lat="44.5036" lon="1.229">
        <ele>144.82</ele>
        <time>2022-05-21T09:14:34Z</time>
      </trkpt>
      <trkpt lat="44.50352" lon="1.22894">
        <ele>143.85</ele>
        <time>2022-05-21T09:14:48Z</time>
      </trkpt>
      <trkpt lat="44.50338" lon="1.22887">
        <ele>141.93</ele>
        <time>2022-05-21T09:15:04Z</time>
      </trkpt>
      <trkpt lat="44.50329" lon="1.22881">
        <ele>140.49</ele>
        <time>2022-05-21T09:15:18Z</time>
      </trkpt>
      <trkpt lat="44.50324" lon="1.22876">
        <ele>139.53</ele>
        <time>2022-05-21T09:15:34Z</time>
      </trkpt>
      <trkpt lat="44.50319" lon="1.22875">
        <ele>138.57</ele>
        <time>2022-05-21T09:15:49Z</time>
      </trkpt>
      <trkpt lat="44.50315" lon="1.22872">
        <ele>137.13</ele>
        <time>2022-05-21T09:16:03Z</time>
      </trkpt>
      <trkpt lat="44.50314" lon="1.2287">
        <ele>136.64</ele>
        <time>2022-05-21T09:16:19Z</time>
      </trkpt>
      <trkpt lat="44.5031" lon="1.22866">
        <ele>136.16</ele>
        <time>2022-05-21T09:16:37Z</time>
      </trkpt>
      <trkpt lat="44.50302" lon="1.22864">
        <ele>134.24</ele>
        <time>2022-05-21T09:16:53Z</time>
      </trkpt>
      <trkpt lat="44.50305" lon="1.22863">
        <ele>133.28</ele>
        <time>2022-05-21T09:17:09Z</time>
      </trkpt>
      <trkpt lat="44.50292" lon="1.22866">
        <ele>131.36</ele>
        <time>2022-05-21T09:17:26Z</time>
      </trkpt>
      <trkpt lat="44.50281" lon="1.22869">
        <ele>128.95</ele>
        <time>2022-05-21T09:17:45Z</time>
      </trkpt>
      <trkpt lat="44.50271" lon="1.2287">
        <ele>126.07</ele>
        <time>2022-05-21T09:18:03Z</time>
      </trkpt>
      <trkpt lat="44.50263" lon="1.22871">
        <ele>124.15</ele>
        <time>2022-05-21T09:18:18Z</time>
      </trkpt>
      <trkpt lat="44.50255" lon="1.22873">
        <ele>121.26</ele>
        <time>2022-05-21T09:18:35Z</time>
      </trkpt>
      <trkpt lat="44.50245" lon="1.22878">
        <ele>118.86</ele>
        <time>2022-05-21T09:18:51Z</time>
      </trkpt>
      <trkpt lat="44.50237" lon="1.22885">
        <ele>116.94</ele>
        <time>2022-05-21T09:19:09Z</time>
      </trkpt>
      <trkpt lat="44.50235" lon="1.22887">
        <ele>115.98</ele>
        <time>2022-05-21T09:19:23Z</time>
      </trkpt>
      <trkpt lat="44.50236" lon="1.22886">
        <ele>115.98</ele>
        <time>2022-05-21T09:19:40Z</time>
      </trkpt>
      <trkpt lat="44.50238" lon="1.22885">
        <ele>115.98</ele>
        <time>2022-05-21T09:20:13Z</time>
      </trkpt>
      <trkpt lat="44.50234" lon="1.22879">
        <ele>115.98</ele>
        <time>2022-05-21T09:20:33Z</time>
      </trkpt>
      <trkpt lat="44.50243" lon="1.22865">
        <ele>115.5</ele>
        <time>2022-05-21T09:20:51Z</time>
      </trkpt>
      <trkpt lat="44.50243" lon="1.22857">
        <ele>114.53</ele>
        <time>2022-05-21T09:21:07Z</time>
      </trkpt>
      <trkpt lat="44.50246" lon="1.22839">
        <ele>111.17</ele>
        <time>2022-05-21T09:21:25Z</time>
      </trkpt>
      <trkpt lat="44.5025" lon="1.22822">
        <ele>110.69</ele>
        <time>2022-05-21T09:21:36Z</time>
      </trkpt>
      <trkpt lat="44.50255" lon="1.22799">
        <ele>108.29</ele>
        <time>2022-05-21T09:21:53Z</time>
      </trkpt>
      <trkpt lat="44.50255" lon="1.22789">
        <ele>107.81</ele>
        <time>2022-05-21T09:22:08Z</time>
      </trkpt>
      <trkpt lat="44.50258" lon="1.22765">
        <ele>106.36</ele>
        <time>2022-05-21T09:22:25Z</time>
      </trkpt>
      <trkpt lat="44.50259" lon="1.22745">
        <ele>105.88</ele>
        <time>2022-05-21T09:22:41Z</time>
      </trkpt>
      <trkpt lat="44.50261" lon="1.22718">
        <ele>104.44</ele>
        <time>2022-05-21T09:22:59Z</time>
      </trkpt>
      <trkpt lat="44.50262" lon="1.22698">
        <ele>103.96</ele>
        <time>2022-05-21T09:23:14Z</time>
      </trkpt>
      <trkpt lat="44.50263" lon="1.22673">
        <ele>103.48</ele>
        <time>2022-05-21T09:23:30Z</time>
      </trkpt>
      <trkpt lat="44.50264" lon="1.22654">
        <ele>103.48</ele>
        <time>2022-05-21T09:23:44Z</time>
      </trkpt>
      <trkpt lat="44.50265" lon="1.22645">
        <ele>103.48</ele>
        <time>2022-05-21T09:23:51Z</time>
      </trkpt>
      <trkpt lat="44.50276" lon="1.22632">
        <ele>103.48</ele>
        <time>2022-05-21T09:24:08Z</time>
      </trkpt>
      <trkpt lat="44.50276" lon="1.22626">
        <ele>103.48</ele>
        <time>2022-05-21T09:24:22Z</time>
      </trkpt>
      <trkpt lat="44.5027" lon="1.22611">
        <ele>103.48</ele>
        <time>2022-05-21T09:24:37Z</time>
      </trkpt>
      <trkpt lat="44.50263" lon="1.22588">
        <ele>103.48</ele>
        <time>2022-05-21T09:24:54Z</time>
      </trkpt>
      <trkpt lat="44.50257" lon="1.22566">
        <ele>103.48</ele>
        <time>2022-05-21T09:25:10Z</time>
      </trkpt>
      <trkpt lat="44.50256" lon="1.22564">
        <ele>104.44</ele>
        <time>2022-05-21T09:25:25Z</time>
      </trkpt>
      <trkpt lat="44.50251" lon="1.22545">
        <ele>104.44</ele>
        <time>2022-05-21T09:25:40Z</time>
      </trkpt>
      <trkpt lat="44.50248" lon="1.22532">
        <ele>104.44</ele>
        <time>2022-05-21T09:25:54Z</time>
      </trkpt>
      <trkpt lat="44.50239" lon="1.22511">
        <ele>104.44</ele>
        <time>2022-05-21T09:26:08Z</time>
      </trkpt>
      <trkpt lat="44.50232" lon="1.22495">
        <ele>103</ele>
        <time>2022-05-21T09:26:23Z</time>
      </trkpt>
      <trkpt lat="44.50223" lon="1.22479">
        <ele>101.56</ele>
        <time>2022-05-21T09:26:40Z</time>
      </trkpt>
      <trkpt lat="44.5021" lon="1.2246">
        <ele>101.56</ele>
        <time>2022-05-21T09:26:57Z</time>
      </trkpt>
      <trkpt lat="44.50197" lon="1.22443">
        <ele>101.08</ele>
        <time>2022-05-21T09:27:13Z</time>
      </trkpt>
      <trkpt lat="44.50185" lon="1.22424">
        <ele>100.6</ele>
        <time>2022-05-21T09:27:29Z</time>
      </trkpt>
      <trkpt lat="44.50174" lon="1.22407">
        <ele>100.6</ele>
        <time>2022-05-21T09:27:46Z</time>
      </trkpt>
      <trkpt lat="44.50164" lon="1.22392">
        <ele>100.6</ele>
        <time>2022-05-21T09:28:01Z</time>
      </trkpt>
      <trkpt lat="44.50155" lon="1.22378">
        <ele>100.6</ele>
        <time>2022-05-21T09:28:18Z</time>
      </trkpt>
      <trkpt lat="44.50155" lon="1.22375">
        <ele>100.6</ele>
        <time>2022-05-21T09:28:31Z</time>
      </trkpt>
      <trkpt lat="44.50153" lon="1.22369">
        <ele>100.6</ele>
        <time>2022-05-21T09:28:35Z</time>
      </trkpt>
      <trkpt lat="44.50146" lon="1.22359">
        <ele>100.6</ele>
        <time>2022-05-21T09:28:53Z</time>
      </trkpt>
      <trkpt lat="44.50139" lon="1.22346">
        <ele>100.6</ele>
        <time>2022-05-21T09:29:08Z</time>
      </trkpt>
      <trkpt lat="44.50136" lon="1.22336">
        <ele>100.6</ele>
        <time>2022-05-21T09:29:24Z</time>
      </trkpt>
      <trkpt lat="44.50131" lon="1.22318">
        <ele>100.11</ele>
        <time>2022-05-21T09:29:39Z</time>
      </trkpt>
      <trkpt lat="44.50121" lon="1.22307">
        <ele>100.11</ele>
        <time>2022-05-21T09:29:55Z</time>
      </trkpt>
      <trkpt lat="44.50119" lon="1.22304">
        <ele>100.11</ele>
        <time>2022-05-21T09:30:02Z</time>
      </trkpt>
      <trkpt lat="44.50125" lon="1.22306">
        <ele>100.11</ele>
        <time>2022-05-21T09:30:16Z</time>
      </trkpt>
      <trkpt lat="44.50123" lon="1.22311">
        <ele>100.11</ele>
        <time>2022-05-21T09:30:22Z</time>
      </trkpt>
      <trkpt lat="44.50132" lon="1.22324">
        <ele>100.11</ele>
        <time>2022-05-21T09:30:59Z</time>
      </trkpt>
      <trkpt lat="44.50144" lon="1.22333">
        <ele>100.11</ele>
        <time>2022-05-21T09:31:19Z</time>
      </trkpt>
      <trkpt lat="44.50139" lon="1.22323">
        <ele>100.11</ele>
        <time>2022-05-21T09:31:42Z</time>
      </trkpt>
      <trkpt lat="44.50135" lon="1.22318">
        <ele>100.11</ele>
        <time>2022-05-21T09:32:09Z</time>
      </trkpt>
      <trkpt lat="44.50123" lon="1.22306">
        <ele>99.63</ele>
        <time>2022-05-21T09:32:22Z</time>
      </trkpt>
      <trkpt lat="44.5011" lon="1.22306">
        <ele>99.63</ele>
        <time>2022-05-21T09:32:35Z</time>
      </trkpt>
      <trkpt lat="44.50108" lon="1.22307">
        <ele>99.63</ele>
        <time>2022-05-21T09:32:37Z</time>
      </trkpt>
      <trkpt lat="44.50106" lon="1.22307">
        <ele>99.63</ele>
        <time>2022-05-21T09:32:39Z</time>
      </trkpt>
      <trkpt lat="44.50089" lon="1.22305">
        <ele>99.63</ele>
        <time>2022-05-21T09:32:55Z</time>
      </trkpt>
      <trkpt lat="44.50082" lon="1.22298">
        <ele>99.63</ele>
        <time>2022-05-21T09:33:10Z</time>
      </trkpt>
      <trkpt lat="44.50075" lon="1.22302">
        <ele>99.63</ele>
        <time>2022-05-21T09:33:26Z</time>
      </trkpt>
      <trkpt lat="44.50075" lon="1.22303">
        <ele>99.63</ele>
        <time>2022-05-21T09:33:40Z</time>
      </trkpt>
      <trkpt lat="44.50074" lon="1.22301">
        <ele>98.67</ele>
        <time>2022-05-21T09:34:00Z</time>
      </trkpt>
      <trkpt lat="44.50073" lon="1.223">
        <ele>100.11</ele>
        <time>2022-05-21T09:34:05Z</time>
      </trkpt>
    </trkseg>
  </trk>
</gpx>